Time,TemperatureF,DewpointF,PressureIn,WindDirection,WindDirectionDegrees,WindSpeedMPH,WindSpeedGustMPH,Humidity,HourlyPrecipIn,Conditions,Clouds,dailyrainin,SoftwareType,DateUTC
2013-03-20 00:01:00,69.1,60.1,29.85,NE,41,2.0,6.0,73,0.00,,,0.00,Wunderground v.1.15,2013-03-20 05:01:00,
2013-03-20 00:03:00,69.1,60.1,29.85,NE,40,2.0,6.0,73,0.00,,,0.00,Wunderground v.1.15,2013-03-20 05:03:00,
2013-03-20 00:07:00,69.1,60.1,29.85,East,85,3.0,6.0,73,0.00,,,0.00,Wunderground v.1.15,2013-03-20 05:07:00,
2013-03-20 00:09:00,69.1,60.1,29.85,NE,54,3.0,6.0,73,0.00,,,0.00,Wunderground v.1.15,2013-03-20 05:09:00,
2013-03-20 00:12:00,69.3,60.3,29.85,NE,56,3.0,6.0,73,0.00,,,0.00,Wunderground v.1.15,2013-03-20 05:12:00,
2013-03-20 00:14:00,69.3,59.9,29.85,NE,37,3.0,7.0,72,0.00,,,0.00,Wunderground v.1.15,2013-03-20 05:14:00,
2013-03-20 00:17:00,69.4,59.6,29.85,NE,40,4.0,8.0,71,0.00,,,0.00,Wunderground v.1.15,2013-03-20 05:17:00,
2013-03-20 00:19:00,69.3,58.7,29.85,NE,48,5.0,13.0,69,0.00,,,0.00,Wunderground v.1.15,2013-03-20 05:19:00,
2013-03-20 00:21:00,69.3,57.5,29.85,North,11,6.0,9.0,66,0.00,,,0.00,Wunderground v.1.15,2013-03-20 05:21:00,
2013-03-20 00:22:00,69.3,57.0,29.85,NE,45,6.0,10.0,65,0.00,,,0.00,Wunderground v.1.15,2013-03-20 05:22:00,
2013-03-20 00:27:00,69.3,56.2,29.85,NE,34,7.0,10.0,63,0.00,,,0.00,Wunderground v.1.15,2013-03-20 05:27:00,
2013-03-20 00:28:00,69.3,56.2,29.85,East,89,7.0,10.0,63,0.00,,,0.00,Wunderground v.1.15,2013-03-20 05:28:00,
2013-03-20 00:29:00,69.3,55.7,29.85,North,11,7.0,10.0,62,0.00,,,0.00,Wunderground v.1.15,2013-03-20 05:29:00,
2013-03-20 00:33:00,69.3,55.7,29.86,NE,55,6.0,14.0,62,0.00,,,0.00,Wunderground v.1.15,2013-03-20 05:33:00,
2013-03-20 00:34:00,69.3,55.7,29.86,NE,42,6.0,14.0,62,0.00,,,0.00,Wunderground v.1.15,2013-03-20 05:34:00,
2013-03-20 00:35:00,69.3,55.7,29.86,NE,54,6.0,14.0,62,0.00,,,0.00,Wunderground v.1.15,2013-03-20 05:35:00,
2013-03-20 00:38:00,69.1,55.1,29.86,ENE,62,6.0,14.0,61,0.00,,,0.00,Wunderground v.1.15,2013-03-20 05:38:00,
2013-03-20 00:41:00,69.1,55.1,29.86,ENE,75,5.0,5.0,61,0.00,,,0.00,Wunderground v.1.15,2013-03-20 05:41:00,
2013-03-20 00:42:00,69.1,55.1,29.86,NE,42,5.0,16.0,61,0.00,,,0.00,Wunderground v.1.15,2013-03-20 05:42:00,
2013-03-20 00:45:00,69.1,55.1,29.86,NNE,32,5.0,16.0,61,0.00,,,0.00,Wunderground v.1.15,2013-03-20 05:45:00,
2013-03-20 00:46:00,69.1,55.1,29.86,NE,49,5.0,16.0,61,0.00,,,0.00,Wunderground v.1.15,2013-03-20 05:46:00,
2013-03-20 00:51:00,68.9,54.4,29.86,NE,42,6.0,11.0,60,0.00,,,0.00,Wunderground v.1.15,2013-03-20 05:51:00,
2013-03-20 00:52:00,68.9,54.4,29.86,NE,51,6.0,11.0,60,0.00,,,0.00,Wunderground v.1.15,2013-03-20 05:52:00,
2013-03-20 00:54:00,68.9,54.4,29.86,NE,48,6.0,11.0,60,0.00,,,0.00,Wunderground v.1.15,2013-03-20 05:54:00,
2013-03-20 00:57:00,68.8,54.3,29.86,NE,37,6.0,11.0,60,0.00,,,0.00,Wunderground v.1.15,2013-03-20 05:57:00,
2013-03-20 00:59:00,68.8,53.9,29.86,NE,48,6.0,11.0,59,0.00,,,0.00,Wunderground v.1.15,2013-03-20 05:59:00,
2013-03-20 01:02:00,68.8,53.9,29.86,ENE,69,6.0,13.0,59,0.00,,,0.00,Wunderground v.1.15,2013-03-20 06:02:00,
2013-03-20 01:04:00,68.8,53.9,29.86,NNE,24,6.0,13.0,59,0.00,,,0.00,Wunderground v.1.15,2013-03-20 06:04:00,
2013-03-20 01:05:00,68.6,53.7,29.86,NE,49,6.0,13.0,59,0.00,,,0.00,Wunderground v.1.15,2013-03-20 06:05:00,
2013-03-20 01:06:00,68.6,53.7,29.86,North,8,7.0,13.0,59,0.00,,,0.00,Wunderground v.1.15,2013-03-20 06:06:00,
2013-03-20 01:07:00,68.6,53.7,29.86,North,8,7.0,13.0,59,0.00,,,0.00,Wunderground v.1.15,2013-03-20 06:07:00,
2013-03-20 01:11:00,68.6,53.2,29.86,NNE,31,6.0,13.0,58,0.00,,,0.00,Wunderground v.1.15,2013-03-20 06:11:00,
2013-03-20 01:12:00,68.6,53.2,29.86,NE,45,6.0,13.0,58,0.00,,,0.00,Wunderground v.1.15,2013-03-20 06:12:00,
2013-03-20 01:17:00,68.4,53.0,29.88,NE,56,6.0,13.0,58,0.00,,,0.00,Wunderground v.1.15,2013-03-20 06:17:00,
2013-03-20 01:19:00,68.4,53.0,29.88,NE,41,6.0,13.0,58,0.00,,,0.00,Wunderground v.1.15,2013-03-20 06:19:00,
2013-03-20 01:20:00,68.4,53.0,29.88,NNE,30,7.0,14.0,58,0.00,,,0.00,Wunderground v.1.15,2013-03-20 06:20:00,
2013-03-20 01:27:00,67.1,52.7,29.88,North,6,10.0,15.0,60,0.00,,,0.00,Wunderground v.1.15,2013-03-20 06:27:00,
2013-03-20 01:28:00,66.9,53.0,29.88,NNE,25,10.0,15.0,61,0.00,,,0.00,Wunderground v.1.15,2013-03-20 06:28:00,
2013-03-20 01:31:00,66.4,52.5,29.89,North,8,11.0,11.0,61,0.00,,,0.00,Wunderground v.1.15,2013-03-20 06:31:00,
2013-03-20 01:33:00,66.3,52.9,29.89,NNE,24,11.0,20.0,62,0.00,,,0.00,Wunderground v.1.15,2013-03-20 06:33:00,
2013-03-20 01:36:00,65.8,52.4,29.89,NE,44,10.0,20.0,62,0.00,,,0.00,Wunderground v.1.15,2013-03-20 06:36:00,
2013-03-20 01:37:00,65.8,52.4,29.89,NNE,27,9.0,20.0,62,0.00,,,0.00,Wunderground v.1.15,2013-03-20 06:37:00,
2013-03-20 01:39:00,65.5,51.7,29.89,North,0,9.0,20.0,61,0.00,,,0.00,Wunderground v.1.15,2013-03-20 06:39:00,
2013-03-20 01:43:00,65.0,51.2,29.89,North,0,10.0,21.0,61,0.00,,,0.00,Wunderground v.1.15,2013-03-20 06:43:00,
2013-03-20 01:44:00,65.0,51.2,29.89,NE,35,10.0,21.0,61,0.00,,,0.00,Wunderground v.1.15,2013-03-20 06:44:00,
2013-03-20 01:45:00,64.8,51.5,29.89,NNE,32,10.0,21.0,62,0.00,,,0.00,Wunderground v.1.15,2013-03-20 06:45:00,
2013-03-20 01:48:00,64.7,51.4,29.90,North,357,10.0,21.0,62,0.00,,,0.00,Wunderground v.1.15,2013-03-20 06:48:00,
2013-03-20 01:49:00,64.7,51.4,29.90,North,0,10.0,21.0,62,0.00,,,0.00,Wunderground v.1.15,2013-03-20 06:49:00,
2013-03-20 01:52:00,64.3,51.9,29.90,NE,51,11.0,17.0,64,0.00,,,0.00,Wunderground v.1.15,2013-03-20 06:52:00,
2013-03-20 01:54:00,64.0,51.6,29.90,North,0,11.0,17.0,64,0.00,,,0.00,Wunderground v.1.15,2013-03-20 06:54:00,
2013-03-20 01:55:00,64.0,52.0,29.90,North,352,11.0,17.0,65,0.00,,,0.00,Wunderground v.1.15,2013-03-20 06:55:00,
2013-03-20 01:57:00,63.7,51.7,29.90,NE,52,12.0,18.0,65,0.00,,,0.00,Wunderground v.1.15,2013-03-20 06:57:00,
2013-03-20 01:59:00,63.5,51.9,29.90,NNE,28,11.0,18.0,66,0.00,,,0.00,Wunderground v.1.15,2013-03-20 06:59:00,
2013-03-20 02:00:00,63.5,51.9,29.90,NNE,28,11.0,18.0,66,0.00,,,0.00,Wunderground v.1.15,2013-03-20 07:00:00,
2013-03-20 02:04:00,63.2,52.1,29.91,NNE,25,11.0,18.0,67,0.00,,,0.00,Wunderground v.1.15,2013-03-20 07:04:00,
2013-03-20 02:05:00,63.1,52.0,29.91,NE,51,11.0,18.0,67,0.00,,,0.00,Wunderground v.1.15,2013-03-20 07:05:00,
2013-03-20 02:06:00,63.1,52.0,29.91,ENE,58,11.0,18.0,67,0.00,,,0.00,Wunderground v.1.15,2013-03-20 07:06:00,
2013-03-20 02:08:00,62.9,52.2,29.91,NNE,23,11.0,18.0,68,0.00,,,0.00,Wunderground v.1.15,2013-03-20 07:08:00,
2013-03-20 02:09:00,62.7,52.0,29.91,ENE,64,12.0,18.0,68,0.00,,,0.00,Wunderground v.1.15,2013-03-20 07:09:00,
2013-03-20 02:12:00,62.6,52.3,29.91,NE,55,11.0,24.0,69,0.00,,,0.00,Wunderground v.1.15,2013-03-20 07:12:00,
2013-03-20 02:14:00,62.4,52.1,29.91,NE,44,12.0,24.0,69,0.00,,,0.00,Wunderground v.1.15,2013-03-20 07:14:00,
2013-03-20 02:15:00,62.4,52.1,29.91,NNE,27,12.0,24.0,69,0.00,,,0.00,Wunderground v.1.15,2013-03-20 07:15:00,
2013-03-20 02:19:00,62.1,52.2,29.92,NE,42,11.0,24.0,70,0.00,,,0.00,Wunderground v.1.15,2013-03-20 07:19:00,
2013-03-20 02:21:00,62.1,52.2,29.92,NNE,23,11.0,11.0,70,0.00,,,0.00,Wunderground v.1.15,2013-03-20 07:21:00,
2013-03-20 02:24:00,61.8,52.3,29.92,North,0,11.0,25.0,71,0.00,,,0.00,Wunderground v.1.15,2013-03-20 07:24:00,
2013-03-20 02:25:00,61.8,52.3,29.92,NNE,13,11.0,25.0,71,0.00,,,0.00,Wunderground v.1.15,2013-03-20 07:25:00,
2013-03-20 02:27:00,61.8,52.3,29.92,North,352,10.0,25.0,71,0.00,,,0.00,Wunderground v.1.15,2013-03-20 07:27:00,
2013-03-20 02:29:00,61.6,52.1,29.92,NE,48,10.0,25.0,71,0.00,,,0.00,Wunderground v.1.15,2013-03-20 07:29:00,
2013-03-20 02:33:00,61.3,51.4,29.93,North,359,12.0,25.0,70,0.00,,,0.00,Wunderground v.1.15,2013-03-20 07:33:00,
2013-03-20 02:34:00,61.2,51.3,29.93,NE,44,12.0,25.0,70,0.00,,,0.00,Wunderground v.1.15,2013-03-20 07:34:00,
2013-03-20 02:35:00,61.2,51.3,29.93,North,0,12.0,25.0,70,0.00,,,0.00,Wunderground v.1.15,2013-03-20 07:35:00,
2013-03-20 02:40:00,60.9,51.0,29.93,NE,48,12.0,25.0,70,0.00,,,0.00,Wunderground v.1.15,2013-03-20 07:40:00,
2013-03-20 02:42:00,60.9,51.0,29.93,NE,54,11.0,22.0,70,0.00,,,0.00,Wunderground v.1.15,2013-03-20 07:42:00,
2013-03-20 02:43:00,60.7,50.9,29.93,North,0,11.0,22.0,70,0.00,,,0.00,Wunderground v.1.15,2013-03-20 07:43:00,
2013-03-20 02:45:00,60.7,50.9,29.93,North,0,11.0,22.0,70,0.00,,,0.00,Wunderground v.1.15,2013-03-20 07:45:00,
2013-03-20 02:48:00,60.5,50.7,29.93,ENE,59,12.0,22.0,70,0.00,,,0.00,Wunderground v.1.15,2013-03-20 07:48:00,
2013-03-20 02:49:00,60.5,50.7,29.93,North,0,12.0,22.0,70,0.00,,,0.00,Wunderground v.1.15,2013-03-20 07:49:00,
2013-03-20 02:50:00,60.4,50.6,29.93,NNE,18,12.0,28.0,70,0.00,,,0.00,Wunderground v.1.15,2013-03-20 07:50:00,
2013-03-20 02:52:00,60.4,50.6,29.93,NE,35,12.0,28.0,70,0.00,,,0.00,Wunderground v.1.15,2013-03-20 07:52:00,
2013-03-20 02:54:00,60.2,50.4,29.93,NNE,30,14.0,28.0,70,0.00,,,0.00,Wunderground v.1.15,2013-03-20 07:54:00,
2013-03-20 02:56:00,60.2,50.4,29.93,ENE,59,14.0,28.0,70,0.00,,,0.00,Wunderground v.1.15,2013-03-20 07:56:00,
2013-03-20 02:57:00,60.2,50.4,29.93,NNE,28,13.0,28.0,70,0.00,,,0.00,Wunderground v.1.15,2013-03-20 07:57:00,
2013-03-20 02:59:00,60.2,50.4,29.93,North,0,13.0,28.0,70,0.00,,,0.00,Wunderground v.1.15,2013-03-20 07:59:00,
2013-03-20 03:00:00,60.2,50.4,29.93,NE,40,13.0,25.0,70,0.00,,,0.00,Wunderground v.1.15,2013-03-20 08:00:00,
2013-03-20 03:03:00,60.2,50.4,29.93,North,357,11.0,25.0,70,0.00,,,0.00,Wunderground v.1.15,2013-03-20 08:03:00,
2013-03-20 03:04:00,60.2,50.4,29.93,NE,40,11.0,25.0,70,0.00,,,0.00,Wunderground v.1.15,2013-03-20 08:04:00,
2013-03-20 03:05:00,60.1,50.3,29.93,East,82,11.0,25.0,70,0.00,,,0.00,Wunderground v.1.15,2013-03-20 08:05:00,
2013-03-20 03:10:00,60.1,50.3,29.93,ENE,61,12.0,12.0,70,0.00,,,0.00,Wunderground v.1.15,2013-03-20 08:10:00,
2013-03-20 03:12:00,60.1,50.3,29.93,East,92,12.0,26.0,70,0.00,,,0.00,Wunderground v.1.15,2013-03-20 08:12:00,
2013-03-20 03:13:00,60.1,50.3,29.93,NE,34,12.0,26.0,70,0.00,,,0.00,Wunderground v.1.15,2013-03-20 08:13:00,
2013-03-20 03:14:00,60.1,50.3,29.93,NE,38,11.0,26.0,70,0.00,,,0.00,Wunderground v.1.15,2013-03-20 08:14:00,
2013-03-20 03:17:00,60.1,50.3,29.93,NE,42,9.0,26.0,70,0.00,,,0.00,Wunderground v.1.15,2013-03-20 08:17:00,
2013-03-20 03:20:00,60.1,50.3,29.93,NE,42,9.0,29.0,70,0.00,,,0.00,Wunderground v.1.15,2013-03-20 08:20:00,
2013-03-20 03:22:00,60.1,50.3,29.93,East,86,9.0,29.0,70,0.00,,,0.00,Wunderground v.1.15,2013-03-20 08:22:00,
2013-03-20 03:25:00,60.1,50.3,29.93,NNE,31,10.0,29.0,70,0.00,,,0.00,Wunderground v.1.15,2013-03-20 08:25:00,
2013-03-20 03:29:00,60.1,50.3,29.93,ENE,66,10.0,29.0,70,0.00,,,0.00,Wunderground v.1.15,2013-03-20 08:29:00,
2013-03-20 03:31:00,60.1,50.3,29.94,NNE,18,10.0,12.0,70,0.00,,,0.00,Wunderground v.1.15,2013-03-20 08:31:00,
2013-03-20 03:35:00,60.1,50.3,29.94,NE,42,10.0,21.0,70,0.00,,,0.00,Wunderground v.1.15,2013-03-20 08:35:00,
2013-03-20 03:36:00,60.1,50.3,29.94,NNE,17,10.0,21.0,70,0.00,,,0.00,Wunderground v.1.15,2013-03-20 08:36:00,
2013-03-20 03:40:00,60.1,50.3,29.94,ENE,78,10.0,10.0,70,0.00,,,0.00,Wunderground v.1.15,2013-03-20 08:40:00,
2013-03-20 03:43:00,60.1,49.9,29.94,East,88,9.0,22.0,69,0.00,,,0.00,Wunderground v.1.15,2013-03-20 08:43:00,
2013-03-20 03:44:00,60.2,50.0,29.94,NNE,17,9.0,22.0,69,0.00,,,0.00,Wunderground v.1.15,2013-03-20 08:44:00,
2013-03-20 03:46:00,60.2,50.0,29.93,NE,56,8.0,22.0,69,0.00,,,0.00,Wunderground v.1.15,2013-03-20 08:46:00,
2013-03-20 03:48:00,60.2,50.0,29.93,East,80,8.0,22.0,69,0.00,,,0.00,Wunderground v.1.15,2013-03-20 08:48:00,
2013-03-20 03:53:00,60.1,49.9,29.93,NE,48,9.0,18.0,69,0.00,,,0.00,Wunderground v.1.15,2013-03-20 08:53:00,
2013-03-20 03:54:00,60.1,49.9,29.93,NE,44,9.0,18.0,69,0.00,,,0.00,Wunderground v.1.15,2013-03-20 08:54:00,
2013-03-20 03:55:00,60.1,49.9,29.93,North,10,8.0,18.0,69,0.00,,,0.00,Wunderground v.1.15,2013-03-20 08:55:00,
2013-03-20 03:56:00,60.1,49.9,29.93,NE,35,9.0,18.0,69,0.00,,,0.00,Wunderground v.1.15,2013-03-20 08:56:00,
2013-03-20 04:01:00,60.1,49.9,29.94,North,356,7.0,19.0,69,0.00,,,0.00,Wunderground v.1.15,2013-03-20 09:01:00,
2013-03-20 04:03:00,60.1,49.9,29.94,NNW,347,7.0,19.0,69,0.00,,,0.00,Wunderground v.1.15,2013-03-20 09:03:00,
2013-03-20 04:04:00,60.1,49.9,29.94,ENE,61,7.0,19.0,69,0.00,,,0.00,Wunderground v.1.15,2013-03-20 09:04:00,
2013-03-20 04:07:00,60.1,49.9,29.94,NE,55,7.0,19.0,69,0.00,,,0.00,Wunderground v.1.15,2013-03-20 09:07:00,
2013-03-20 04:09:00,60.1,49.9,29.94,NE,48,7.0,19.0,69,0.00,,,0.00,Wunderground v.1.15,2013-03-20 09:09:00,
2013-03-20 04:12:00,60.1,49.9,29.94,ENE,69,8.0,15.0,69,0.00,,,0.00,Wunderground v.1.15,2013-03-20 09:12:00,
2013-03-20 04:14:00,60.1,49.9,29.94,NE,55,8.0,15.0,69,0.00,,,0.00,Wunderground v.1.15,2013-03-20 09:14:00,
2013-03-20 04:17:00,60.1,49.9,29.95,NE,38,8.0,15.0,69,0.00,,,0.00,Wunderground v.1.15,2013-03-20 09:17:00,
2013-03-20 04:21:00,60.1,49.5,29.95,NE,48,7.0,16.0,68,0.00,,,0.00,Wunderground v.1.15,2013-03-20 09:21:00,
2013-03-20 04:22:00,60.1,49.5,29.95,NNE,25,8.0,16.0,68,0.00,,,0.00,Wunderground v.1.15,2013-03-20 09:22:00,
2013-03-20 04:23:00,60.1,49.5,29.95,ENE,62,8.0,16.0,68,0.00,,,0.00,Wunderground v.1.15,2013-03-20 09:23:00,
2013-03-20 04:24:00,60.1,49.5,29.95,North,10,8.0,16.0,68,0.00,,,0.00,Wunderground v.1.15,2013-03-20 09:24:00,
2013-03-20 04:27:00,60.1,49.5,29.95,NNE,18,10.0,16.0,68,0.00,,,0.00,Wunderground v.1.15,2013-03-20 09:27:00,
2013-03-20 04:30:00,60.2,49.6,29.95,NE,47,9.0,9.0,68,0.00,,,0.00,Wunderground v.1.15,2013-03-20 09:30:00,
2013-03-20 04:31:00,60.2,49.6,29.97,North,11,9.0,10.0,68,0.00,,,0.00,Wunderground v.1.15,2013-03-20 09:31:00,
2013-03-20 04:33:00,60.2,49.6,29.97,NNE,30,8.0,17.0,68,0.00,,,0.00,Wunderground v.1.15,2013-03-20 09:33:00,
2013-03-20 04:36:00,60.2,49.6,29.97,NNE,16,7.0,17.0,68,0.00,,,0.00,Wunderground v.1.15,2013-03-20 09:36:00,
2013-03-20 04:37:00,60.2,49.6,29.97,NNE,18,7.0,17.0,68,0.00,,,0.00,Wunderground v.1.15,2013-03-20 09:37:00,
2013-03-20 04:38:00,60.2,49.6,29.97,North,0,7.0,17.0,68,0.00,,,0.00,Wunderground v.1.15,2013-03-20 09:38:00,
2013-03-20 04:42:00,60.2,49.6,29.97,NE,37,8.0,19.0,68,0.00,,,0.00,Wunderground v.1.15,2013-03-20 09:42:00,
2013-03-20 04:43:00,60.2,49.6,29.97,NE,38,9.0,19.0,68,0.00,,,0.00,Wunderground v.1.15,2013-03-20 09:43:00,
2013-03-20 04:48:00,60.2,49.6,29.96,NNE,20,8.0,19.0,68,0.00,,,0.00,Wunderground v.1.15,2013-03-20 09:48:00,
2013-03-20 04:52:00,60.1,49.5,29.96,NE,52,7.0,19.0,68,0.00,,,0.00,Wunderground v.1.15,2013-03-20 09:52:00,
2013-03-20 04:53:00,60.1,49.9,29.96,NE,38,7.0,19.0,69,0.00,,,0.00,Wunderground v.1.15,2013-03-20 09:53:00,
2013-03-20 04:54:00,60.1,49.9,29.96,NE,34,7.0,19.0,69,0.00,,,0.00,Wunderground v.1.15,2013-03-20 09:54:00,
2013-03-20 04:58:00,60.1,49.9,29.96,NE,38,7.0,19.0,69,0.00,,,0.00,Wunderground v.1.15,2013-03-20 09:58:00,
2013-03-20 05:00:00,60.1,49.9,29.96,ENE,58,7.0,20.0,69,0.00,,,0.00,Wunderground v.1.15,2013-03-20 10:00:00,
2013-03-20 05:03:00,59.9,49.7,29.96,NNE,27,7.0,20.0,69,0.00,,,0.00,Wunderground v.1.15,2013-03-20 10:03:00,
2013-03-20 05:06:00,59.9,49.7,29.96,North,359,7.0,20.0,69,0.00,,,0.00,Wunderground v.1.15,2013-03-20 10:06:00,
2013-03-20 05:10:00,59.8,50.0,29.96,North,359,8.0,17.0,70,0.00,,,0.00,Wunderground v.1.15,2013-03-20 10:10:00,
2013-03-20 05:12:00,59.8,50.0,29.96,NE,47,8.0,17.0,70,0.00,,,0.00,Wunderground v.1.15,2013-03-20 10:12:00,
2013-03-20 05:13:00,59.6,49.8,29.96,NE,51,8.0,17.0,70,0.00,,,0.00,Wunderground v.1.15,2013-03-20 10:13:00,
2013-03-20 05:15:00,59.6,50.2,29.96,NE,49,9.0,17.0,71,0.00,,,0.00,Wunderground v.1.15,2013-03-20 10:15:00,
2013-03-20 05:17:00,59.5,50.1,29.97,North,11,9.0,17.0,71,0.00,,,0.00,Wunderground v.1.15,2013-03-20 10:17:00,
2013-03-20 05:20:00,59.5,50.1,29.97,East,100,8.0,17.0,71,0.00,,,0.00,Wunderground v.1.15,2013-03-20 10:20:00,
2013-03-20 05:21:00,59.3,49.9,29.97,NE,44,8.0,17.0,71,0.00,,,0.00,Wunderground v.1.15,2013-03-20 10:21:00,
2013-03-20 05:25:00,59.3,50.3,29.97,ENE,61,8.0,17.0,72,0.00,,,0.00,Wunderground v.1.15,2013-03-20 10:25:00,
2013-03-20 05:26:00,59.2,50.2,29.97,NNE,14,8.0,17.0,72,0.00,,,0.00,Wunderground v.1.15,2013-03-20 10:26:00,
2013-03-20 05:28:00,59.2,50.2,29.97,NNE,21,8.0,17.0,72,0.00,,,0.00,Wunderground v.1.15,2013-03-20 10:28:00,
2013-03-20 05:31:00,59.2,50.2,29.97,NNE,31,8.0,17.0,72,0.00,,,0.00,Wunderground v.1.15,2013-03-20 10:31:00,
2013-03-20 05:32:00,59.2,50.2,29.97,NE,34,8.0,17.0,72,0.00,,,0.00,Wunderground v.1.15,2013-03-20 10:32:00,
2013-03-20 05:34:00,59.2,50.2,29.97,North,0,8.0,17.0,72,0.00,,,0.00,Wunderground v.1.15,2013-03-20 10:34:00,
2013-03-20 05:35:00,59.2,50.2,29.97,NE,41,8.0,17.0,72,0.00,,,0.00,Wunderground v.1.15,2013-03-20 10:35:00,
2013-03-20 05:40:00,59.0,50.0,29.97,NNE,28,7.0,17.0,72,0.00,,,0.00,Wunderground v.1.15,2013-03-20 10:40:00,
2013-03-20 05:41:00,59.0,50.0,29.97,NE,55,7.0,17.0,72,0.00,,,0.00,Wunderground v.1.15,2013-03-20 10:41:00,
2013-03-20 05:44:00,59.0,50.0,29.97,ENE,58,7.0,17.0,72,0.00,,,0.00,Wunderground v.1.15,2013-03-20 10:44:00,
2013-03-20 05:45:00,59.0,50.4,29.97,NNE,21,7.0,17.0,73,0.00,,,0.00,Wunderground v.1.15,2013-03-20 10:45:00,
2013-03-20 05:47:00,58.9,50.3,29.98,NNE,20,8.0,17.0,73,0.00,,,0.00,Wunderground v.1.15,2013-03-20 10:47:00,
2013-03-20 05:48:00,58.9,50.3,29.98,ENE,61,8.0,17.0,73,0.00,,,0.00,Wunderground v.1.15,2013-03-20 10:48:00,
2013-03-20 05:50:00,58.9,50.3,29.98,NE,35,8.0,17.0,73,0.00,,,0.00,Wunderground v.1.15,2013-03-20 10:50:00,
2013-03-20 05:53:00,58.9,50.3,29.98,NE,35,7.0,17.0,73,0.00,,,0.00,Wunderground v.1.15,2013-03-20 10:53:00,
2013-03-20 05:54:00,58.9,50.3,29.98,NE,37,7.0,17.0,73,0.00,,,0.00,Wunderground v.1.15,2013-03-20 10:54:00,
2013-03-20 05:55:00,58.9,50.3,29.98,NE,38,6.0,17.0,73,0.00,,,0.00,Wunderground v.1.15,2013-03-20 10:55:00,
2013-03-20 05:56:00,58.7,50.1,29.98,NE,47,6.0,17.0,73,0.00,,,0.00,Wunderground v.1.15,2013-03-20 10:56:00,
2013-03-20 06:00:00,58.7,50.4,29.98,ESE,106,6.0,6.0,74,0.00,,,0.00,Wunderground v.1.15,2013-03-20 11:00:00,
2013-03-20 06:02:00,58.6,50.3,29.98,NE,38,5.0,17.0,74,0.00,,,0.00,Wunderground v.1.15,2013-03-20 11:02:00,
2013-03-20 06:04:00,58.6,50.3,29.98,NE,37,6.0,17.0,74,0.00,,,0.00,Wunderground v.1.15,2013-03-20 11:04:00,
2013-03-20 06:07:00,58.6,50.3,29.98,NNE,21,6.0,17.0,74,0.00,,,0.00,Wunderground v.1.15,2013-03-20 11:07:00,
2013-03-20 06:10:00,58.4,50.5,29.98,NE,41,6.0,6.0,75,0.00,,,0.00,Wunderground v.1.15,2013-03-20 11:10:00,
2013-03-20 06:11:00,58.4,50.5,29.98,NE,37,6.0,13.0,75,0.00,,,0.00,Wunderground v.1.15,2013-03-20 11:11:00,
2013-03-20 06:13:00,58.4,50.5,29.98,NE,41,5.0,13.0,75,0.00,,,0.00,Wunderground v.1.15,2013-03-20 11:13:00,
2013-03-20 06:16:00,58.4,50.5,30.00,North,6,5.0,13.0,75,0.00,,,0.00,Wunderground v.1.15,2013-03-20 11:16:00,
2013-03-20 06:18:00,58.3,50.4,30.00,NNE,31,5.0,13.0,75,0.00,,,0.00,Wunderground v.1.15,2013-03-20 11:18:00,
2013-03-20 06:20:00,58.3,50.4,30.00,NNE,20,5.0,13.0,75,0.00,,,0.00,Wunderground v.1.15,2013-03-20 11:20:00,
2013-03-20 06:21:00,58.3,50.4,30.00,NE,47,5.0,7.0,75,0.00,,,0.00,Wunderground v.1.15,2013-03-20 11:21:00,
2013-03-20 06:22:00,58.3,50.4,30.00,NNE,14,6.0,13.0,75,0.00,,,0.00,Wunderground v.1.15,2013-03-20 11:22:00,
2013-03-20 06:23:00,58.3,50.4,30.00,North,10,6.0,13.0,75,0.00,,,0.00,Wunderground v.1.15,2013-03-20 11:23:00,
2013-03-20 06:28:00,58.1,50.6,30.00,NE,34,6.0,13.0,76,0.00,,,0.00,Wunderground v.1.15,2013-03-20 11:28:00,
2013-03-20 06:30:00,58.1,50.6,30.00,NNE,25,7.0,12.0,76,0.00,,,0.00,Wunderground v.1.15,2013-03-20 11:30:00,
2013-03-20 06:31:00,58.0,50.5,30.01,NNE,31,7.0,12.0,76,0.00,,,0.00,Wunderground v.1.15,2013-03-20 11:31:00,
2013-03-20 06:32:00,58.0,50.8,30.01,NNE,21,8.0,12.0,77,0.00,,,0.00,Wunderground v.1.15,2013-03-20 11:32:00,
2013-03-20 06:33:00,58.0,50.8,30.01,NE,40,8.0,12.0,77,0.00,,,0.00,Wunderground v.1.15,2013-03-20 11:33:00,
2013-03-20 06:40:00,57.8,50.6,30.01,ENE,59,7.0,13.0,77,0.00,,,0.00,Wunderground v.1.15,2013-03-20 11:40:00,
2013-03-20 06:41:00,57.6,50.8,30.01,ENE,68,7.0,17.0,78,0.00,,,0.00,Wunderground v.1.15,2013-03-20 11:41:00,
2013-03-20 06:42:00,57.6,50.8,30.01,North,359,7.0,17.0,78,0.00,,,0.00,Wunderground v.1.15,2013-03-20 11:42:00,
2013-03-20 06:45:00,57.6,50.8,30.01,NE,56,7.0,17.0,78,0.00,,,0.00,Wunderground v.1.15,2013-03-20 11:45:00,
2013-03-20 06:47:00,57.5,50.7,30.03,NNE,25,8.0,17.0,78,0.00,,,0.00,Wunderground v.1.15,2013-03-20 11:47:00,
2013-03-20 06:48:00,57.5,50.7,30.03,ENE,71,8.0,17.0,78,0.00,,,0.00,Wunderground v.1.15,2013-03-20 11:48:00,
2013-03-20 06:50:00,57.5,51.0,30.03,NNE,13,7.0,17.0,79,0.00,,,0.00,Wunderground v.1.15,2013-03-20 11:50:00,
2013-03-20 06:54:00,57.3,50.8,30.03,NNE,27,6.0,17.0,79,0.00,,,0.00,Wunderground v.1.15,2013-03-20 11:54:00,
2013-03-20 06:55:00,57.3,50.8,30.03,North,6,6.0,17.0,79,0.00,,,0.00,Wunderground v.1.15,2013-03-20 11:55:00,
2013-03-20 06:56:00,57.3,50.8,30.03,NNE,14,6.0,17.0,79,0.00,,,0.00,Wunderground v.1.15,2013-03-20 11:56:00,
2013-03-20 07:02:00,57.2,50.7,30.04,NNE,32,5.0,14.0,79,0.00,,,0.00,Wunderground v.1.15,2013-03-20 12:02:00,
2013-03-20 07:03:00,57.2,50.7,30.04,North,11,6.0,14.0,79,0.00,,,0.00,Wunderground v.1.15,2013-03-20 12:03:00,
2013-03-20 07:05:00,57.2,51.1,30.04,North,0,6.0,14.0,80,0.00,,,0.00,Wunderground v.1.15,2013-03-20 12:05:00,
2013-03-20 07:07:00,57.0,50.9,30.04,NE,40,7.0,14.0,80,0.00,,,0.00,Wunderground v.1.15,2013-03-20 12:07:00,
2013-03-20 07:10:00,57.0,50.9,30.04,NE,51,7.0,11.0,80,0.00,,,0.00,Wunderground v.1.15,2013-03-20 12:10:00,
2013-03-20 07:11:00,57.0,50.9,30.04,NNE,31,7.0,11.0,80,0.00,,,0.00,Wunderground v.1.15,2013-03-20 12:11:00,
2013-03-20 07:14:00,57.0,50.9,30.04,North,357,7.0,11.0,80,0.00,,,0.00,Wunderground v.1.15,2013-03-20 12:14:00,
2013-03-20 07:16:00,56.9,50.8,30.05,NE,34,6.0,11.0,80,0.00,,,0.00,Wunderground v.1.15,2013-03-20 12:16:00,
2013-03-20 07:20:00,56.9,50.8,30.05,North,0,6.0,14.0,80,0.00,,,0.00,Wunderground v.1.15,2013-03-20 12:20:00,
2013-03-20 07:21:00,56.7,50.6,30.05,North,350,6.0,14.0,80,0.00,,,0.00,Wunderground v.1.15,2013-03-20 12:21:00,
2013-03-20 07:22:00,56.7,50.6,30.05,NNE,27,6.0,14.0,80,0.00,,,0.00,Wunderground v.1.15,2013-03-20 12:22:00,
2013-03-20 07:23:00,56.7,50.6,30.05,NNE,21,6.0,14.0,80,0.00,,,0.00,Wunderground v.1.15,2013-03-20 12:23:00,
2013-03-20 07:25:00,56.7,50.6,30.05,NE,40,6.0,14.0,80,0.00,,,0.00,Wunderground v.1.15,2013-03-20 12:25:00,
2013-03-20 07:27:00,56.7,50.9,30.05,ENE,69,6.0,14.0,81,0.00,,,0.00,Wunderground v.1.15,2013-03-20 12:27:00,
2013-03-20 07:30:00,56.6,50.8,30.05,NE,42,6.0,14.0,81,0.00,,,0.00,Wunderground v.1.15,2013-03-20 12:30:00,
2013-03-20 07:33:00,56.6,50.8,30.06,NE,52,7.0,12.0,81,0.00,,,0.00,Wunderground v.1.15,2013-03-20 12:33:00,
2013-03-20 07:34:00,56.6,50.8,30.06,North,0,7.0,12.0,81,0.00,,,0.00,Wunderground v.1.15,2013-03-20 12:34:00,
2013-03-20 07:36:00,56.6,50.8,30.06,NE,54,7.0,12.0,81,0.00,,,0.00,Wunderground v.1.15,2013-03-20 12:36:00,
2013-03-20 07:40:00,56.6,50.8,30.06,NE,45,7.0,14.0,81,0.00,,,0.00,Wunderground v.1.15,2013-03-20 12:40:00,
2013-03-20 07:41:00,56.6,50.8,30.06,NNE,31,7.0,14.0,81,0.00,,,0.00,Wunderground v.1.15,2013-03-20 12:41:00,
2013-03-20 07:42:00,56.6,50.8,30.06,NNE,23,7.0,14.0,81,0.00,,,0.00,Wunderground v.1.15,2013-03-20 12:42:00,
2013-03-20 07:46:00,56.6,50.8,30.07,NE,54,6.0,14.0,81,0.00,,,0.00,Wunderground v.1.15,2013-03-20 12:46:00,
2013-03-20 07:47:00,56.6,50.8,30.07,North,1,7.0,14.0,81,0.00,,,0.00,Wunderground v.1.15,2013-03-20 12:47:00,
2013-03-20 07:48:00,56.6,50.8,30.07,North,359,6.0,14.0,81,0.00,,,0.00,Wunderground v.1.15,2013-03-20 12:48:00,
2013-03-20 07:51:00,56.6,51.2,30.07,North,0,6.0,13.0,82,0.00,,,0.00,Wunderground v.1.15,2013-03-20 12:51:00,
2013-03-20 07:53:00,56.6,51.2,30.07,North,0,7.0,13.0,82,0.00,,,0.00,Wunderground v.1.15,2013-03-20 12:53:00,
2013-03-20 07:54:00,56.6,50.8,30.07,NE,42,7.0,13.0,81,0.00,,,0.00,Wunderground v.1.15,2013-03-20 12:54:00,
2013-03-20 07:55:00,56.6,51.2,30.07,North,1,7.0,13.0,82,0.00,,,0.00,Wunderground v.1.15,2013-03-20 12:55:00,
2013-03-20 07:57:00,56.6,51.2,30.07,NE,54,7.0,13.0,82,0.00,,,0.00,Wunderground v.1.15,2013-03-20 12:57:00,
2013-03-20 08:01:00,56.6,51.2,30.08,North,3,7.0,7.0,82,0.00,,,0.00,Wunderground v.1.15,2013-03-20 13:01:00,
2013-03-20 08:02:00,56.6,51.2,30.08,NNE,14,7.0,14.0,82,0.00,,,0.00,Wunderground v.1.15,2013-03-20 13:02:00,
2013-03-20 08:06:00,56.6,51.2,30.08,North,3,7.0,14.0,82,0.00,,,0.00,Wunderground v.1.15,2013-03-20 13:06:00,
2013-03-20 08:07:00,56.6,51.2,30.08,North,7,7.0,14.0,82,0.00,,,0.00,Wunderground v.1.15,2013-03-20 13:07:00,
2013-03-20 08:09:00,56.6,51.2,30.08,NNE,17,7.0,14.0,82,0.00,,,0.00,Wunderground v.1.15,2013-03-20 13:09:00,
2013-03-20 08:12:00,56.6,51.2,30.08,North,0,7.0,13.0,82,0.00,,,0.00,Wunderground v.1.15,2013-03-20 13:12:00,
2013-03-20 08:15:00,56.6,51.2,30.08,NNE,30,6.0,13.0,82,0.00,,,0.00,Wunderground v.1.15,2013-03-20 13:15:00,
2013-03-20 08:16:00,56.6,51.2,30.09,North,4,6.0,13.0,82,0.00,,,0.00,Wunderground v.1.15,2013-03-20 13:16:00,
2013-03-20 08:19:00,56.6,51.2,30.09,NNE,31,7.0,13.0,82,0.00,,,0.00,Wunderground v.1.15,2013-03-20 13:19:00,
2013-03-20 08:22:00,56.6,51.2,30.09,NNE,20,6.0,13.0,82,0.00,,,0.00,Wunderground v.1.15,2013-03-20 13:22:00,
2013-03-20 08:24:00,56.6,51.2,30.09,NE,45,6.0,13.0,82,0.00,,,0.00,Wunderground v.1.15,2013-03-20 13:24:00,
2013-03-20 08:27:00,56.6,51.2,30.09,North,354,6.0,13.0,82,0.00,,,0.00,Wunderground v.1.15,2013-03-20 13:27:00,
2013-03-20 08:29:00,56.6,51.2,30.09,NNE,14,6.0,13.0,82,0.00,,,0.00,Wunderground v.1.15,2013-03-20 13:29:00,
2013-03-20 08:31:00,56.6,51.2,30.09,NNE,32,7.0,16.0,82,0.00,,,0.00,Wunderground v.1.15,2013-03-20 13:31:00,
2013-03-20 08:33:00,56.6,51.2,30.09,NNE,14,8.0,16.0,82,0.00,,,0.00,Wunderground v.1.15,2013-03-20 13:33:00,
2013-03-20 08:35:00,56.7,51.3,30.09,NNE,25,7.0,16.0,82,0.00,,,0.00,Wunderground v.1.15,2013-03-20 13:35:00,
2013-03-20 08:36:00,56.7,51.3,30.09,North,0,7.0,16.0,82,0.00,,,0.00,Wunderground v.1.15,2013-03-20 13:36:00,
2013-03-20 08:39:00,56.7,51.3,30.09,NE,41,7.0,16.0,82,0.00,,,0.00,Wunderground v.1.15,2013-03-20 13:39:00,
2013-03-20 08:41:00,56.7,51.3,30.09,North,6,6.0,16.0,82,0.00,,,0.00,Wunderground v.1.15,2013-03-20 13:41:00,
2013-03-20 08:44:00,56.7,50.9,30.09,North,1,6.0,16.0,81,0.00,,,0.00,Wunderground v.1.15,2013-03-20 13:44:00,
2013-03-20 08:45:00,56.6,50.8,30.09,NE,35,6.0,16.0,81,0.00,,,0.00,Wunderground v.1.15,2013-03-20 13:45:00,
2013-03-20 08:51:00,56.7,50.9,30.10,NNE,21,7.0,7.0,81,0.00,,,0.00,Wunderground v.1.15,2013-03-20 13:51:00,
2013-03-20 08:53:00,56.7,50.9,30.10,North,0,6.0,12.0,81,0.00,,,0.00,Wunderground v.1.15,2013-03-20 13:53:00,
2013-03-20 08:56:00,56.7,50.6,30.10,North,0,6.0,12.0,80,0.00,,,0.00,Wunderground v.1.15,2013-03-20 13:56:00,
2013-03-20 08:58:00,56.6,50.5,30.10,NE,35,7.0,12.0,80,0.00,,,0.00,Wunderground v.1.15,2013-03-20 13:58:00,
2013-03-20 09:00:00,56.6,50.5,30.10,North,6,8.0,8.0,80,0.00,,,0.00,Wunderground v.1.15,2013-03-20 14:00:00,
2013-03-20 09:01:00,56.6,50.5,30.10,North,0,8.0,14.0,80,0.00,,,0.00,Wunderground v.1.15,2013-03-20 14:01:00,
2013-03-20 09:05:00,56.6,50.5,30.10,North,11,8.0,14.0,80,0.00,,,0.00,Wunderground v.1.15,2013-03-20 14:05:00,
2013-03-20 09:07:00,56.5,50.4,30.10,NNE,27,8.0,14.0,80,0.00,,,0.00,Wunderground v.1.15,2013-03-20 14:07:00,
2013-03-20 09:09:00,56.5,50.4,30.10,NNE,23,8.0,14.0,80,0.00,,,0.00,Wunderground v.1.15,2013-03-20 14:09:00,
2013-03-20 09:10:00,56.5,50.4,30.10,NNE,14,8.0,18.0,80,0.00,,,0.00,Wunderground v.1.15,2013-03-20 14:10:00,
2013-03-20 09:15:00,56.5,50.4,30.10,NNE,23,8.0,18.0,80,0.00,,,0.00,Wunderground v.1.15,2013-03-20 14:15:00,
2013-03-20 09:16:00,56.6,50.5,30.11,NNE,28,8.0,18.0,80,0.00,,,0.00,Wunderground v.1.15,2013-03-20 14:16:00,
2013-03-20 09:17:00,56.6,50.5,30.11,NE,52,7.0,18.0,80,0.00,,,0.00,Wunderground v.1.15,2013-03-20 14:17:00,
2013-03-20 09:18:00,56.6,50.5,30.11,NNE,18,7.0,18.0,80,0.00,,,0.00,Wunderground v.1.15,2013-03-20 14:18:00,
2013-03-20 09:22:00,56.6,50.5,30.11,NNE,16,6.0,18.0,80,0.00,,,0.00,Wunderground v.1.15,2013-03-20 14:22:00,
2013-03-20 09:23:00,56.6,50.5,30.11,NNE,30,6.0,18.0,80,0.00,,,0.00,Wunderground v.1.15,2013-03-20 14:23:00,
2013-03-20 09:24:00,56.6,50.5,30.11,North,0,7.0,18.0,80,0.00,,,0.00,Wunderground v.1.15,2013-03-20 14:24:00,
2013-03-20 09:25:00,56.6,50.5,30.11,NNE,20,7.0,18.0,80,0.00,,,0.00,Wunderground v.1.15,2013-03-20 14:25:00,
2013-03-20 09:29:00,56.5,50.1,30.11,NNE,21,8.0,18.0,79,0.00,,,0.00,Wunderground v.1.15,2013-03-20 14:29:00,
2013-03-20 09:32:00,56.5,50.1,30.11,North,357,8.0,13.0,79,0.00,,,0.00,Wunderground v.1.15,2013-03-20 14:32:00,
2013-03-20 09:33:00,56.5,50.1,30.11,North,0,8.0,13.0,79,0.00,,,0.00,Wunderground v.1.15,2013-03-20 14:33:00,
2013-03-20 09:34:00,56.5,50.1,30.11,NNE,14,8.0,13.0,79,0.00,,,0.00,Wunderground v.1.15,2013-03-20 14:34:00,
2013-03-20 09:37:00,56.5,50.1,30.11,NNE,27,8.0,13.0,79,0.00,,,0.00,Wunderground v.1.15,2013-03-20 14:37:00,
2013-03-20 09:38:00,56.6,50.2,30.11,NE,42,7.0,13.0,79,0.00,,,0.00,Wunderground v.1.15,2013-03-20 14:38:00,
2013-03-20 09:41:00,56.6,50.2,30.11,North,10,7.0,17.0,79,0.00,,,0.00,Wunderground v.1.15,2013-03-20 14:41:00,
2013-03-20 09:43:00,56.6,50.2,30.11,NNE,17,7.0,17.0,79,0.00,,,0.00,Wunderground v.1.15,2013-03-20 14:43:00,
2013-03-20 09:45:00,56.5,50.1,30.11,NNE,13,7.0,17.0,79,0.00,,,0.00,Wunderground v.1.15,2013-03-20 14:45:00,
2013-03-20 09:47:00,56.5,50.1,30.12,NE,34,7.0,17.0,79,0.00,,,0.00,Wunderground v.1.15,2013-03-20 14:47:00,
2013-03-20 09:49:00,56.5,50.1,30.12,NE,40,8.0,17.0,79,0.00,,,0.00,Wunderground v.1.15,2013-03-20 14:49:00,
2013-03-20 09:51:00,56.5,50.1,30.12,North,7,8.0,8.0,79,0.00,,,0.00,Wunderground v.1.15,2013-03-20 14:51:00,
2013-03-20 09:54:00,56.5,50.1,30.12,North,4,7.0,13.0,79,0.00,,,0.00,Wunderground v.1.15,2013-03-20 14:54:00,
2013-03-20 09:55:00,56.5,50.1,30.12,North,0,7.0,13.0,79,0.00,,,0.00,Wunderground v.1.15,2013-03-20 14:55:00,
2013-03-20 09:56:00,56.5,50.1,30.12,NE,56,7.0,13.0,79,0.00,,,0.00,Wunderground v.1.15,2013-03-20 14:56:00,
2013-03-20 09:57:00,56.5,50.1,30.12,NE,56,7.0,13.0,79,0.00,,,0.00,Wunderground v.1.15,2013-03-20 14:57:00,
2013-03-20 09:59:00,56.5,50.1,30.12,NE,34,7.0,13.0,79,0.00,,,0.00,Wunderground v.1.15,2013-03-20 14:59:00,
2013-03-20 10:01:00,56.5,50.1,30.12,NE,45,7.0,12.0,79,0.00,,,0.00,Wunderground v.1.15,2013-03-20 15:01:00,
2013-03-20 10:03:00,56.5,50.1,30.12,NNE,32,8.0,16.0,79,0.00,,,0.00,Wunderground v.1.15,2013-03-20 15:03:00,
2013-03-20 10:09:00,57.0,50.2,30.12,NE,34,6.0,16.0,78,0.00,,,0.00,Wunderground v.1.15,2013-03-20 15:09:00,
2013-03-20 10:10:00,57.0,49.9,30.12,NE,34,6.0,14.0,77,0.00,,,0.00,Wunderground v.1.15,2013-03-20 15:10:00,
2013-03-20 10:11:00,57.0,49.9,30.12,NNE,32,7.0,14.0,77,0.00,,,0.00,Wunderground v.1.15,2013-03-20 15:11:00,
2013-03-20 10:12:00,57.0,49.9,30.12,North,7,7.0,14.0,77,0.00,,,0.00,Wunderground v.1.15,2013-03-20 15:12:00,
2013-03-20 10:15:00,57.0,49.9,30.12,North,0,7.0,14.0,77,0.00,,,0.00,Wunderground v.1.15,2013-03-20 15:15:00,
2013-03-20 10:18:00,57.2,50.1,30.12,NNE,13,8.0,14.0,77,0.00,,,0.00,Wunderground v.1.15,2013-03-20 15:18:00,
2013-03-20 10:19:00,57.2,50.1,30.12,NE,38,8.0,14.0,77,0.00,,,0.00,Wunderground v.1.15,2013-03-20 15:19:00,
2013-03-20 10:20:00,57.2,50.1,30.12,North,357,8.0,8.0,77,0.00,,,0.00,Wunderground v.1.15,2013-03-20 15:20:00,
2013-03-20 10:24:00,57.5,50.0,30.12,NE,41,8.0,13.0,76,0.00,,,0.00,Wunderground v.1.15,2013-03-20 15:24:00,
2013-03-20 10:26:00,57.5,50.0,30.12,NNE,20,7.0,13.0,76,0.00,,,0.00,Wunderground v.1.15,2013-03-20 15:26:00,
2013-03-20 10:29:00,57.5,50.0,30.12,NNE,28,7.0,13.0,76,0.00,,,0.00,Wunderground v.1.15,2013-03-20 15:29:00,
2013-03-20 10:30:00,57.5,49.6,30.12,North,7,7.0,7.0,75,0.00,,,0.00,Wunderground v.1.15,2013-03-20 15:30:00,
2013-03-20 10:33:00,57.5,50.0,30.13,North,3,7.0,16.0,76,0.00,,,0.00,Wunderground v.1.15,2013-03-20 15:33:00,
2013-03-20 10:35:00,57.8,49.9,30.13,NNE,16,7.0,16.0,75,0.00,,,0.00,Wunderground v.1.15,2013-03-20 15:35:00,
2013-03-20 10:38:00,58.3,50.4,30.13,NNE,32,7.0,16.0,75,0.00,,,0.00,Wunderground v.1.15,2013-03-20 15:38:00,
2013-03-20 10:40:00,58.4,50.1,30.13,North,3,7.0,16.0,74,0.00,,,0.00,Wunderground v.1.15,2013-03-20 15:40:00,
2013-03-20 10:42:00,58.4,50.1,30.13,NE,35,7.0,13.0,74,0.00,,,0.00,Wunderground v.1.15,2013-03-20 15:42:00,
2013-03-20 10:43:00,58.4,50.1,30.13,North,8,7.0,15.0,74,0.00,,,0.00,Wunderground v.1.15,2013-03-20 15:43:00,
2013-03-20 10:48:00,58.3,50.4,30.12,NE,42,8.0,15.0,75,0.00,,,0.00,Wunderground v.1.15,2013-03-20 15:48:00,
2013-03-20 10:51:00,58.4,50.5,30.12,NNE,31,8.0,8.0,75,0.00,,,0.00,Wunderground v.1.15,2013-03-20 15:51:00,
2013-03-20 10:55:00,58.6,50.3,30.12,North,3,8.0,14.0,74,0.00,,,0.00,Wunderground v.1.15,2013-03-20 15:55:00,
2013-03-20 10:56:00,58.6,50.3,30.12,NNW,346,8.0,14.0,74,0.00,,,0.00,Wunderground v.1.15,2013-03-20 15:56:00,
2013-03-20 10:58:00,58.4,50.1,30.12,NNE,25,8.0,14.0,74,0.00,,,0.00,Wunderground v.1.15,2013-03-20 15:58:00,
2013-03-20 11:01:00,58.6,50.3,30.13,ENE,73,8.0,14.0,74,0.00,,,0.00,Wunderground v.1.15,2013-03-20 16:01:00,
2013-03-20 11:02:00,58.6,50.7,30.13,North,359,8.0,14.0,75,0.00,,,0.00,Wunderground v.1.15,2013-03-20 16:02:00,
2013-03-20 11:05:00,58.7,50.1,30.13,NNE,18,8.0,14.0,73,0.00,,,0.00,Wunderground v.1.15,2013-03-20 16:05:00,
2013-03-20 11:07:00,58.7,50.1,30.13,NE,34,7.0,14.0,73,0.00,,,0.00,Wunderground v.1.15,2013-03-20 16:07:00,
2013-03-20 11:08:00,58.9,50.3,30.13,NE,56,7.0,14.0,73,0.00,,,0.00,Wunderground v.1.15,2013-03-20 16:08:00,
2013-03-20 11:11:00,59.0,50.0,30.13,North,0,7.0,7.0,72,0.00,,,0.00,Wunderground v.1.15,2013-03-20 16:11:00,
2013-03-20 11:13:00,59.0,50.0,30.13,NE,52,7.0,17.0,72,0.00,,,0.00,Wunderground v.1.15,2013-03-20 16:13:00,
2013-03-20 11:15:00,59.2,49.8,30.13,NNW,328,7.0,17.0,71,0.00,,,0.00,Wunderground v.1.15,2013-03-20 16:15:00,
2013-03-20 11:16:00,59.2,50.2,30.13,NNE,27,7.0,17.0,72,0.00,,,0.00,Wunderground v.1.15,2013-03-20 16:16:00,
2013-03-20 11:18:00,59.2,49.8,30.13,North,356,7.0,17.0,71,0.00,,,0.00,Wunderground v.1.15,2013-03-20 16:18:00,
2013-03-20 11:21:00,59.3,49.9,30.13,NNE,18,7.0,15.0,71,0.00,,,0.00,Wunderground v.1.15,2013-03-20 16:21:00,
2013-03-20 11:22:00,59.5,50.1,30.13,NNE,14,7.0,15.0,71,0.00,,,0.00,Wunderground v.1.15,2013-03-20 16:22:00,
2013-03-20 11:26:00,60.1,49.9,30.13,NNE,32,7.0,15.0,69,0.00,,,0.00,Wunderground v.1.15,2013-03-20 16:26:00,
2013-03-20 11:27:00,60.1,49.9,30.13,North,0,7.0,15.0,69,0.00,,,0.00,Wunderground v.1.15,2013-03-20 16:27:00,
2013-03-20 11:30:00,60.4,49.0,30.13,East,93,8.0,15.0,66,0.00,,,0.00,Wunderground v.1.15,2013-03-20 16:30:00,
2013-03-20 11:32:00,60.7,49.3,30.12,NNE,18,8.0,10.0,66,0.00,,,0.00,Wunderground v.1.15,2013-03-20 16:32:00,
2013-03-20 11:36:00,61.2,49.3,30.12,NNE,21,9.0,14.0,65,0.00,,,0.00,Wunderground v.1.15,2013-03-20 16:36:00,
2013-03-20 11:39:00,61.2,49.3,30.12,NNE,27,8.0,14.0,65,0.00,,,0.00,Wunderground v.1.15,2013-03-20 16:39:00,
2013-03-20 11:41:00,61.5,49.6,30.12,NE,56,7.0,18.0,65,0.00,,,0.00,Wunderground v.1.15,2013-03-20 16:41:00,
2013-03-20 11:42:00,61.8,49.1,30.12,North,0,8.0,18.0,63,0.00,,,0.00,Wunderground v.1.15,2013-03-20 16:42:00,
2013-03-20 11:44:00,62.0,48.0,30.12,ENE,61,8.0,18.0,60,0.00,,,0.00,Wunderground v.1.15,2013-03-20 16:44:00,
2013-03-20 11:48:00,62.6,47.6,30.12,ENE,65,8.0,18.0,58,0.00,,,0.00,Wunderground v.1.15,2013-03-20 16:48:00,
2013-03-20 11:49:00,62.7,47.7,30.12,NE,42,9.0,18.0,58,0.00,,,0.00,Wunderground v.1.15,2013-03-20 16:49:00,
2013-03-20 11:53:00,62.7,46.8,30.12,NE,42,10.0,17.0,56,0.00,,,0.00,Wunderground v.1.15,2013-03-20 16:53:00,
2013-03-20 11:54:00,62.7,47.2,30.12,NNE,14,10.0,17.0,57,0.00,,,0.00,Wunderground v.1.15,2013-03-20 16:54:00,
2013-03-20 11:56:00,62.9,47.0,30.12,ENE,61,10.0,17.0,56,0.00,,,0.00,Wunderground v.1.15,2013-03-20 16:56:00,
2013-03-20 11:58:00,63.1,46.7,30.12,NE,54,10.0,17.0,55,0.00,,,0.00,Wunderground v.1.15,2013-03-20 16:58:00,
2013-03-20 11:59:00,63.1,46.7,30.12,ESE,103,10.0,17.0,55,0.00,,,0.00,Wunderground v.1.15,2013-03-20 16:59:00,
2013-03-20 12:01:00,63.4,46.9,30.12,NE,55,10.0,21.0,55,0.00,,,0.00,Wunderground v.1.15,2013-03-20 17:01:00,
2013-03-20 12:03:00,63.4,46.9,30.12,East,95,9.0,21.0,55,0.00,,,0.00,Wunderground v.1.15,2013-03-20 17:03:00,
2013-03-20 12:07:00,63.9,47.4,30.12,NE,35,8.0,21.0,55,0.00,,,0.00,Wunderground v.1.15,2013-03-20 17:07:00,
2013-03-20 12:09:00,64.0,47.5,30.12,NNE,16,8.0,21.0,55,0.00,,,0.00,Wunderground v.1.15,2013-03-20 17:09:00,
2013-03-20 12:12:00,64.5,48.0,30.12,NE,35,7.0,12.0,55,0.00,,,0.00,Wunderground v.1.15,2013-03-20 17:12:00,
2013-03-20 12:13:00,64.5,47.5,30.12,North,1,7.0,19.0,54,0.00,,,0.00,Wunderground v.1.15,2013-03-20 17:13:00,
2013-03-20 12:14:00,64.5,47.0,30.12,NNE,17,7.0,19.0,53,0.00,,,0.00,Wunderground v.1.15,2013-03-20 17:14:00,
2013-03-20 12:15:00,64.5,47.5,30.12,NNW,347,8.0,19.0,54,0.00,,,0.00,Wunderground v.1.15,2013-03-20 17:15:00,
2013-03-20 12:18:00,64.5,47.0,30.12,NE,37,8.0,19.0,53,0.00,,,0.00,Wunderground v.1.15,2013-03-20 17:18:00,
2013-03-20 12:21:00,64.5,47.0,30.12,North,10,9.0,9.0,53,0.00,,,0.00,Wunderground v.1.15,2013-03-20 17:21:00,
2013-03-20 12:22:00,64.5,47.0,30.12,ENE,66,10.0,11.0,53,0.00,,,0.00,Wunderground v.1.15,2013-03-20 17:22:00,
2013-03-20 12:24:00,64.7,46.7,30.12,NNE,31,10.0,15.0,52,0.00,,,0.00,Wunderground v.1.15,2013-03-20 17:24:00,
2013-03-20 12:27:00,64.7,46.7,30.12,ENE,61,10.0,15.0,52,0.00,,,0.00,Wunderground v.1.15,2013-03-20 17:27:00,
2013-03-20 12:29:00,64.8,46.8,30.12,NE,54,10.0,15.0,52,0.00,,,0.00,Wunderground v.1.15,2013-03-20 17:29:00,
2013-03-20 12:30:00,65.0,46.9,30.12,NNE,27,9.0,19.0,52,0.00,,,0.00,Wunderground v.1.15,2013-03-20 17:30:00,
2013-03-20 12:33:00,65.5,46.9,30.12,North,0,8.0,19.0,51,0.00,,,0.00,Wunderground v.1.15,2013-03-20 17:33:00,
2013-03-20 12:35:00,65.6,45.9,30.12,NE,34,8.0,19.0,49,0.00,,,0.00,Wunderground v.1.15,2013-03-20 17:35:00,
2013-03-20 12:38:00,65.6,47.0,30.12,NE,52,8.0,19.0,51,0.00,,,0.00,Wunderground v.1.15,2013-03-20 17:38:00,
2013-03-20 12:39:00,65.6,46.5,30.12,NNE,27,8.0,19.0,50,0.00,,,0.00,Wunderground v.1.15,2013-03-20 17:39:00,
2013-03-20 12:40:00,65.8,47.2,30.12,NNE,25,8.0,20.0,51,0.00,,,0.00,Wunderground v.1.15,2013-03-20 17:40:00,
2013-03-20 12:42:00,66.0,46.8,30.12,NE,56,8.0,20.0,50,0.00,,,0.00,Wunderground v.1.15,2013-03-20 17:42:00,
2013-03-20 12:45:00,66.3,46.6,30.12,East,92,8.0,20.0,49,0.00,,,0.00,Wunderground v.1.15,2013-03-20 17:45:00,
2013-03-20 12:49:00,66.6,46.3,30.11,NNE,20,8.0,20.0,48,0.00,,,0.00,Wunderground v.1.15,2013-03-20 17:49:00,
2013-03-20 12:50:00,66.6,46.3,30.11,ESE,102,8.0,20.0,48,0.00,,,0.00,Wunderground v.1.15,2013-03-20 17:50:00,
2013-03-20 12:54:00,66.4,46.1,30.11,NE,41,9.0,17.0,48,0.00,,,0.00,Wunderground v.1.15,2013-03-20 17:54:00,
2013-03-20 12:55:00,66.4,46.1,30.11,NNE,25,9.0,17.0,48,0.00,,,0.00,Wunderground v.1.15,2013-03-20 17:55:00,
2013-03-20 12:56:00,66.3,46.0,30.11,North,8,9.0,17.0,48,0.00,,,0.00,Wunderground v.1.15,2013-03-20 17:56:00,
2013-03-20 12:59:00,66.4,46.7,30.11,NE,41,9.0,17.0,49,0.00,,,0.00,Wunderground v.1.15,2013-03-20 17:59:00,
2013-03-20 13:01:00,66.6,46.3,30.11,East,86,9.0,9.0,48,0.00,,,0.00,Wunderground v.1.15,2013-03-20 18:01:00,
2013-03-20 13:02:00,66.8,46.5,30.11,NE,51,9.0,10.0,48,0.00,,,0.00,Wunderground v.1.15,2013-03-20 18:02:00,
2013-03-20 13:03:00,67.1,46.7,30.11,NE,35,8.0,20.0,48,0.00,,,0.00,Wunderground v.1.15,2013-03-20 18:03:00,
2013-03-20 13:06:00,67.1,45.6,30.11,NE,48,8.0,20.0,46,0.00,,,0.00,Wunderground v.1.15,2013-03-20 18:06:00,
2013-03-20 13:07:00,66.9,46.0,30.11,East,82,7.0,20.0,47,0.00,,,0.00,Wunderground v.1.15,2013-03-20 18:07:00,
2013-03-20 13:08:00,67.1,46.2,30.11,East,82,7.0,20.0,47,0.00,,,0.00,Wunderground v.1.15,2013-03-20 18:08:00,
2013-03-20 13:12:00,67.3,45.8,30.11,North,3,8.0,18.0,46,0.00,,,0.00,Wunderground v.1.15,2013-03-20 18:12:00,
2013-03-20 13:14:00,67.4,46.5,30.11,NE,38,8.0,18.0,47,0.00,,,0.00,Wunderground v.1.15,2013-03-20 18:14:00,
2013-03-20 13:15:00,67.4,45.9,30.11,NE,38,8.0,18.0,46,0.00,,,0.00,Wunderground v.1.15,2013-03-20 18:15:00,
2013-03-20 13:18:00,67.4,46.5,30.10,NNE,32,9.0,18.0,47,0.00,,,0.00,Wunderground v.1.15,2013-03-20 18:18:00,
2013-03-20 13:19:00,67.6,46.1,30.10,ENE,76,9.0,18.0,46,0.00,,,0.00,Wunderground v.1.15,2013-03-20 18:19:00,
2013-03-20 13:20:00,67.9,46.3,30.10,North,1,8.0,18.0,46,0.00,,,0.00,Wunderground v.1.15,2013-03-20 18:20:00,
2013-03-20 13:21:00,68.1,46.5,30.10,NNE,13,8.0,8.0,46,0.00,,,0.00,Wunderground v.1.15,2013-03-20 18:21:00,
2013-03-20 13:25:00,68.6,45.8,30.10,East,100,7.0,17.0,44,0.00,,,0.00,Wunderground v.1.15,2013-03-20 18:25:00,
2013-03-20 13:27:00,68.3,44.9,30.10,ESE,102,7.0,17.0,43,0.00,,,0.00,Wunderground v.1.15,2013-03-20 18:27:00,
2013-03-20 13:30:00,68.1,45.4,30.10,SE,138,8.0,17.0,44,0.00,,,0.00,Wunderground v.1.15,2013-03-20 18:30:00,
2013-03-20 13:33:00,68.4,45.0,30.10,ESE,103,8.0,16.0,43,0.00,,,0.00,Wunderground v.1.15,2013-03-20 18:33:00,
2013-03-20 13:34:00,68.6,45.8,30.10,NE,55,8.0,16.0,44,0.00,,,0.00,Wunderground v.1.15,2013-03-20 18:34:00,
2013-03-20 13:37:00,68.8,43.5,30.10,NE,34,7.0,16.0,40,0.00,,,0.00,Wunderground v.1.15,2013-03-20 18:37:00,
2013-03-20 13:38:00,68.6,43.9,30.10,ESE,120,7.0,16.0,41,0.00,,,0.00,Wunderground v.1.15,2013-03-20 18:38:00,
2013-03-20 13:42:00,68.3,43.7,30.10,NE,38,8.0,18.0,41,0.00,,,0.00,Wunderground v.1.15,2013-03-20 18:42:00,
2013-03-20 13:45:00,68.6,43.9,30.10,East,79,8.0,18.0,41,0.00,,,0.00,Wunderground v.1.15,2013-03-20 18:45:00,
2013-03-20 13:47:00,68.6,43.3,30.09,NE,49,8.0,18.0,40,0.00,,,0.00,Wunderground v.1.15,2013-03-20 18:47:00,
2013-03-20 13:49:00,68.6,43.3,30.09,ENE,58,8.0,18.0,40,0.00,,,0.00,Wunderground v.1.15,2013-03-20 18:49:00,
2013-03-20 13:52:00,68.6,42.6,30.09,NE,51,7.0,18.0,39,0.00,,,0.00,Wunderground v.1.15,2013-03-20 18:52:00,
2013-03-20 13:53:00,68.8,42.8,30.09,NE,35,7.0,18.0,39,0.00,,,0.00,Wunderground v.1.15,2013-03-20 18:53:00,
2013-03-20 13:55:00,69.1,42.4,30.09,East,100,7.0,18.0,38,0.00,,,0.00,Wunderground v.1.15,2013-03-20 18:55:00,
2013-03-20 13:58:00,69.1,42.4,30.09,East,100,7.0,18.0,38,0.00,,,0.00,Wunderground v.1.15,2013-03-20 18:58:00,
2013-03-20 13:59:00,68.9,42.2,30.09,East,82,7.0,19.0,38,0.00,,,0.00,Wunderground v.1.15,2013-03-20 18:59:00,
2013-03-20 14:00:00,68.9,41.5,30.09,ENE,58,8.0,20.0,37,0.00,,,0.00,Wunderground v.1.15,2013-03-20 19:00:00,
2013-03-20 14:02:00,68.9,41.5,30.07,ENE,61,8.0,20.0,37,0.00,,,0.00,Wunderground v.1.15,2013-03-20 19:02:00,
2013-03-20 14:03:00,68.9,41.5,30.07,East,88,8.0,20.0,37,0.00,,,0.00,Wunderground v.1.15,2013-03-20 19:03:00,
2013-03-20 14:08:00,69.1,40.3,30.07,SE,128,8.0,20.0,35,0.00,,,0.00,Wunderground v.1.15,2013-03-20 19:08:00,
2013-03-20 14:09:00,69.1,40.3,30.07,ESE,104,8.0,20.0,35,0.00,,,0.00,Wunderground v.1.15,2013-03-20 19:09:00,
2013-03-20 14:13:00,69.1,41.0,30.07,ENE,72,10.0,19.0,36,0.00,,,0.00,Wunderground v.1.15,2013-03-20 19:13:00,
2013-03-20 14:14:00,69.1,40.3,30.07,NE,38,9.0,19.0,35,0.00,,,0.00,Wunderground v.1.15,2013-03-20 19:14:00,
2013-03-20 14:17:00,69.3,38.2,30.08,ESE,104,10.0,19.0,32,0.00,,,0.00,Wunderground v.1.15,2013-03-20 19:17:00,
2013-03-20 14:18:00,69.3,38.2,30.08,East,93,10.0,19.0,32,0.00,,,0.00,Wunderground v.1.15,2013-03-20 19:18:00,
2013-03-20 14:19:00,69.3,37.3,30.08,NNE,28,10.0,19.0,31,0.00,,,0.00,Wunderground v.1.15,2013-03-20 19:19:00,
2013-03-20 14:22:00,69.1,38.0,30.08,NE,51,11.0,21.0,32,0.00,,,0.00,Wunderground v.1.15,2013-03-20 19:22:00,
2013-03-20 14:25:00,69.1,37.2,30.08,ESE,114,10.0,21.0,31,0.00,,,0.00,Wunderground v.1.15,2013-03-20 19:25:00,
2013-03-20 14:27:00,69.4,36.6,30.08,ENE,61,10.0,21.0,30,0.00,,,0.00,Wunderground v.1.15,2013-03-20 19:27:00,
2013-03-20 14:28:00,69.4,37.4,30.08,ESE,102,9.0,21.0,31,0.00,,,0.00,Wunderground v.1.15,2013-03-20 19:28:00,
2013-03-20 14:31:00,70.1,38.0,30.07,East,92,8.0,21.0,31,0.00,,,0.00,Wunderground v.1.15,2013-03-20 19:31:00,
2013-03-20 14:32:00,69.9,37.9,30.07,East,80,8.0,21.0,31,0.00,,,0.00,Wunderground v.1.15,2013-03-20 19:32:00,
2013-03-20 14:33:00,69.9,37.9,30.07,ESE,121,8.0,21.0,31,0.00,,,0.00,Wunderground v.1.15,2013-03-20 19:33:00,
2013-03-20 14:36:00,70.4,39.9,30.07,East,89,7.0,21.0,33,0.00,,,0.00,Wunderground v.1.15,2013-03-20 19:36:00,
2013-03-20 14:37:00,70.6,38.5,30.07,ENE,69,6.0,21.0,31,0.00,,,0.00,Wunderground v.1.15,2013-03-20 19:37:00,
2013-03-20 14:42:00,70.4,38.3,30.07,ENE,69,7.0,19.0,31,0.00,,,0.00,Wunderground v.1.15,2013-03-20 19:42:00,
2013-03-20 14:43:00,70.6,38.5,30.07,ENE,71,7.0,19.0,31,0.00,,,0.00,Wunderground v.1.15,2013-03-20 19:43:00,
2013-03-20 14:47:00,70.6,38.5,30.06,NE,40,8.0,19.0,31,0.00,,,0.00,Wunderground v.1.15,2013-03-20 19:47:00,
2013-03-20 14:48:00,70.6,38.5,30.06,NNE,16,8.0,19.0,31,0.00,,,0.00,Wunderground v.1.15,2013-03-20 19:48:00,
2013-03-20 14:49:00,70.4,37.5,30.06,NE,49,8.0,19.0,30,0.00,,,0.00,Wunderground v.1.15,2013-03-20 19:49:00,
2013-03-20 14:52:00,70.6,38.5,30.06,ESE,113,7.0,16.0,31,0.00,,,0.00,Wunderground v.1.15,2013-03-20 19:52:00,
2013-03-20 14:53:00,70.6,38.5,30.06,NE,52,6.0,16.0,31,0.00,,,0.00,Wunderground v.1.15,2013-03-20 19:53:00,
2013-03-20 14:54:00,70.8,39.5,30.06,NE,44,6.0,16.0,32,0.00,,,0.00,Wunderground v.1.15,2013-03-20 19:54:00,
2013-03-20 14:59:00,70.8,39.5,30.06,East,79,5.0,16.0,32,0.00,,,0.00,Wunderground v.1.15,2013-03-20 19:59:00,
2013-03-20 15:00:00,70.9,39.6,30.06,East,97,5.0,5.0,32,0.00,,,0.00,Wunderground v.1.15,2013-03-20 20:00:00,
2013-03-20 15:02:00,70.9,39.6,30.04,ENE,73,5.0,14.0,32,0.00,,,0.00,Wunderground v.1.15,2013-03-20 20:02:00,
2013-03-20 15:05:00,70.8,39.5,30.04,NE,52,6.0,14.0,32,0.00,,,0.00,Wunderground v.1.15,2013-03-20 20:05:00,
2013-03-20 15:06:00,70.9,39.6,30.04,East,99,6.0,14.0,32,0.00,,,0.00,Wunderground v.1.15,2013-03-20 20:06:00,
2013-03-20 15:07:00,70.9,37.9,30.04,East,82,6.0,14.0,30,0.00,,,0.00,Wunderground v.1.15,2013-03-20 20:07:00,
2013-03-20 15:11:00,70.8,37.8,30.04,ENE,68,7.0,12.0,30,0.00,,,0.00,Wunderground v.1.15,2013-03-20 20:11:00,
2013-03-20 15:12:00,70.8,37.8,30.04,ESE,103,8.0,12.0,30,0.00,,,0.00,Wunderground v.1.15,2013-03-20 20:12:00,
2013-03-20 15:14:00,70.6,38.5,30.04,East,89,8.0,12.0,31,0.00,,,0.00,Wunderground v.1.15,2013-03-20 20:14:00,
2013-03-20 15:17:00,70.4,37.5,30.04,ENE,59,8.0,12.0,30,0.00,,,0.00,Wunderground v.1.15,2013-03-20 20:17:00,
2013-03-20 15:19:00,70.6,37.6,30.04,SE,128,8.0,12.0,30,0.00,,,0.00,Wunderground v.1.15,2013-03-20 20:19:00,
2013-03-20 15:21:00,70.6,36.8,30.04,ENE,69,8.0,19.0,29,0.00,,,0.00,Wunderground v.1.15,2013-03-20 20:21:00,
2013-03-20 15:23:00,70.6,35.9,30.04,NE,40,8.0,19.0,28,0.00,,,0.00,Wunderground v.1.15,2013-03-20 20:23:00,
2013-03-20 15:27:00,70.6,36.8,30.04,East,88,7.0,19.0,29,0.00,,,0.00,Wunderground v.1.15,2013-03-20 20:27:00,
2013-03-20 15:28:00,70.6,36.8,30.04,East,88,7.0,19.0,29,0.00,,,0.00,Wunderground v.1.15,2013-03-20 20:28:00,
2013-03-20 15:29:00,70.6,36.8,30.04,ENE,62,7.0,19.0,29,0.00,,,0.00,Wunderground v.1.15,2013-03-20 20:29:00,
2013-03-20 15:33:00,70.8,36.1,30.04,SE,133,7.0,17.0,28,0.00,,,0.00,Wunderground v.1.15,2013-03-20 20:33:00,
2013-03-20 15:35:00,70.6,35.9,30.04,ESE,107,7.0,17.0,28,0.00,,,0.00,Wunderground v.1.15,2013-03-20 20:35:00,
2013-03-20 15:39:00,70.6,37.6,30.04,ESE,104,7.0,17.0,30,0.00,,,0.00,Wunderground v.1.15,2013-03-20 20:39:00,
2013-03-20 15:41:00,70.8,37.8,30.04,ENE,73,8.0,13.0,30,0.00,,,0.00,Wunderground v.1.15,2013-03-20 20:41:00,
2013-03-20 15:42:00,70.8,38.7,30.04,ESE,107,8.0,13.0,31,0.00,,,0.00,Wunderground v.1.15,2013-03-20 20:42:00,
2013-03-20 15:44:00,70.8,38.7,30.04,ESE,114,7.0,13.0,31,0.00,,,0.00,Wunderground v.1.15,2013-03-20 20:44:00,
2013-03-20 15:46:00,70.4,37.5,30.04,East,95,8.0,13.0,30,0.00,,,0.00,Wunderground v.1.15,2013-03-20 20:46:00,
2013-03-20 15:48:00,70.6,38.5,30.04,ESE,110,8.0,13.0,31,0.00,,,0.00,Wunderground v.1.15,2013-03-20 20:48:00,
2013-03-20 15:53:00,70.8,39.5,30.04,East,90,8.0,11.0,32,0.00,,,0.00,Wunderground v.1.15,2013-03-20 20:53:00,
2013-03-20 15:54:00,70.8,39.5,30.04,ESE,103,8.0,16.0,32,0.00,,,0.00,Wunderground v.1.15,2013-03-20 20:54:00,
2013-03-20 15:55:00,70.8,39.5,30.04,East,88,7.0,16.0,32,0.00,,,0.00,Wunderground v.1.15,2013-03-20 20:55:00,
2013-03-20 16:00:00,70.6,39.3,30.04,East,86,8.0,8.0,32,0.00,,,0.00,Wunderground v.1.15,2013-03-20 21:00:00,
2013-03-20 16:07:00,70.6,39.3,30.02,NE,45,8.0,16.0,32,0.00,,,0.00,Wunderground v.1.15,2013-03-20 21:07:00,
2013-03-20 16:08:00,70.6,40.1,30.02,NE,41,7.0,16.0,33,0.00,,,0.00,Wunderground v.1.15,2013-03-20 21:08:00,
2013-03-20 16:09:00,70.6,39.3,30.02,ESE,116,7.0,16.0,32,0.00,,,0.00,Wunderground v.1.15,2013-03-20 21:09:00,
2013-03-20 16:10:00,70.4,39.1,30.02,ESE,119,7.0,7.0,32,0.00,,,0.00,Wunderground v.1.15,2013-03-20 21:10:00,
2013-03-20 16:12:00,70.4,39.9,30.02,ENE,68,8.0,11.0,33,0.00,,,0.00,Wunderground v.1.15,2013-03-20 21:12:00,
2013-03-20 16:14:00,70.3,40.6,30.02,ENE,69,8.0,18.0,34,0.00,,,0.00,Wunderground v.1.15,2013-03-20 21:14:00,
2013-03-20 16:15:00,70.3,40.6,30.02,ENE,64,8.0,18.0,34,0.00,,,0.00,Wunderground v.1.15,2013-03-20 21:15:00,
2013-03-20 16:19:00,70.4,39.9,30.01,ESE,102,8.0,18.0,33,0.00,,,0.00,Wunderground v.1.15,2013-03-20 21:19:00,
2013-03-20 16:21:00,70.6,40.1,30.01,East,93,8.0,18.0,33,0.00,,,0.00,Wunderground v.1.15,2013-03-20 21:21:00,
2013-03-20 16:22:00,70.8,40.3,30.01,ESE,106,7.0,18.0,33,0.00,,,0.00,Wunderground v.1.15,2013-03-20 21:22:00,
2013-03-20 16:24:00,70.4,39.1,30.01,ENE,66,7.0,18.0,32,0.00,,,0.00,Wunderground v.1.15,2013-03-20 21:24:00,
2013-03-20 16:28:00,70.9,41.1,30.01,ESE,110,6.0,18.0,34,0.00,,,0.00,Wunderground v.1.15,2013-03-20 21:28:00,
2013-03-20 16:29:00,71.1,41.3,30.01,ESE,114,6.0,18.0,34,0.00,,,0.00,Wunderground v.1.15,2013-03-20 21:29:00,
2013-03-20 16:34:00,71.3,41.5,30.01,ENE,65,7.0,16.0,34,0.00,,,0.00,Wunderground v.1.15,2013-03-20 21:34:00,
2013-03-20 16:35:00,71.1,41.3,30.01,East,90,7.0,16.0,34,0.00,,,0.00,Wunderground v.1.15,2013-03-20 21:35:00,
2013-03-20 16:38:00,70.8,41.8,30.01,ESE,116,8.0,16.0,35,0.00,,,0.00,Wunderground v.1.15,2013-03-20 21:38:00,
2013-03-20 16:40:00,70.6,40.9,30.01,East,99,8.0,17.0,34,0.00,,,0.00,Wunderground v.1.15,2013-03-20 21:40:00,
2013-03-20 16:41:00,70.4,40.7,30.01,SE,124,9.0,17.0,34,0.00,,,0.00,Wunderground v.1.15,2013-03-20 21:41:00,
2013-03-20 16:42:00,70.4,41.4,30.01,ESE,114,9.0,17.0,35,0.00,,,0.00,Wunderground v.1.15,2013-03-20 21:42:00,
2013-03-20 16:45:00,70.4,41.4,30.01,East,92,9.0,17.0,35,0.00,,,0.00,Wunderground v.1.15,2013-03-20 21:45:00,
2013-03-20 16:47:00,70.4,41.4,30.00,ESE,106,8.0,17.0,35,0.00,,,0.00,Wunderground v.1.15,2013-03-20 21:47:00,
2013-03-20 16:48:00,70.4,41.4,30.00,ESE,103,9.0,17.0,35,0.00,,,0.00,Wunderground v.1.15,2013-03-20 21:48:00,
2013-03-20 16:53:00,70.4,40.7,30.00,ENE,69,7.0,16.0,34,0.00,,,0.00,Wunderground v.1.15,2013-03-20 21:53:00,
2013-03-20 16:54:00,70.4,41.4,30.00,East,99,7.0,16.0,35,0.00,,,0.00,Wunderground v.1.15,2013-03-20 21:54:00,
2013-03-20 16:57:00,70.3,39.8,30.00,East,90,7.0,16.0,33,0.00,,,0.00,Wunderground v.1.15,2013-03-20 21:57:00,
2013-03-20 16:59:00,70.1,40.4,30.00,ESE,117,7.0,16.0,34,0.00,,,0.00,Wunderground v.1.15,2013-03-20 21:59:00,
2013-03-20 17:01:00,69.9,40.2,29.99,NE,52,7.0,7.0,34,0.00,,,0.00,Wunderground v.1.15,2013-03-20 22:01:00,
2013-03-20 17:05:00,70.3,40.6,29.99,East,80,7.0,14.0,34,0.00,,,0.00,Wunderground v.1.15,2013-03-20 22:05:00,
2013-03-20 17:06:00,70.3,41.3,29.99,ESE,106,7.0,14.0,35,0.00,,,0.00,Wunderground v.1.15,2013-03-20 22:06:00,
2013-03-20 17:11:00,70.8,41.0,29.99,ENE,62,7.0,7.0,34,0.00,,,0.00,Wunderground v.1.15,2013-03-20 22:11:00,
2013-03-20 17:12:00,70.8,41.0,29.99,NE,41,6.0,13.0,34,0.00,,,0.00,Wunderground v.1.15,2013-03-20 22:12:00,
2013-03-20 17:16:00,70.8,41.8,29.99,NE,56,7.0,13.0,35,0.00,,,0.00,Wunderground v.1.15,2013-03-20 22:16:00,
2013-03-20 17:17:00,70.8,41.0,29.99,NE,49,7.0,13.0,34,0.00,,,0.00,Wunderground v.1.15,2013-03-20 22:17:00,
2013-03-20 17:18:00,70.8,41.0,29.99,NNE,31,7.0,13.0,34,0.00,,,0.00,Wunderground v.1.15,2013-03-20 22:18:00,
2013-03-20 17:23:00,70.8,40.3,29.99,ENE,72,7.0,16.0,33,0.00,,,0.00,Wunderground v.1.15,2013-03-20 22:23:00,
2013-03-20 17:25:00,70.6,40.1,29.99,East,95,7.0,16.0,33,0.00,,,0.00,Wunderground v.1.15,2013-03-20 22:25:00,
2013-03-20 17:29:00,70.9,39.6,29.99,ESE,116,5.0,16.0,32,0.00,,,0.00,Wunderground v.1.15,2013-03-20 22:29:00,
2013-03-20 17:31:00,70.9,37.9,29.99,ESE,103,5.0,5.0,30,0.00,,,0.00,Wunderground v.1.15,2013-03-20 22:31:00,
2013-03-20 17:32:00,70.9,37.9,29.99,East,97,5.0,8.0,30,0.00,,,0.00,Wunderground v.1.15,2013-03-20 22:32:00,
2013-03-20 17:34:00,70.9,38.7,29.99,SE,126,6.0,14.0,31,0.00,,,0.00,Wunderground v.1.15,2013-03-20 22:34:00,
2013-03-20 17:35:00,70.9,37.9,29.99,NE,45,6.0,14.0,30,0.00,,,0.00,Wunderground v.1.15,2013-03-20 22:35:00,
2013-03-20 17:36:00,70.9,37.9,29.99,NNE,32,6.0,14.0,30,0.00,,,0.00,Wunderground v.1.15,2013-03-20 22:36:00,
2013-03-20 17:42:00,71.1,38.9,29.99,East,88,5.0,14.0,31,0.00,,,0.00,Wunderground v.1.15,2013-03-20 22:42:00,
2013-03-20 17:43:00,71.1,38.9,29.99,ENE,62,4.0,14.0,31,0.00,,,0.00,Wunderground v.1.15,2013-03-20 22:43:00,
2013-03-20 17:47:00,70.9,37.9,29.98,East,97,5.0,14.0,30,0.00,,,0.00,Wunderground v.1.15,2013-03-20 22:47:00,
2013-03-20 17:49:00,70.8,38.7,29.98,ESE,112,6.0,14.0,31,0.00,,,0.00,Wunderground v.1.15,2013-03-20 22:49:00,
2013-03-20 17:51:00,70.8,37.8,29.98,ESE,114,7.0,14.0,30,0.00,,,0.00,Wunderground v.1.15,2013-03-20 22:51:00,
2013-03-20 17:52:00,70.8,38.7,29.98,ESE,112,7.0,13.0,31,0.00,,,0.00,Wunderground v.1.15,2013-03-20 22:52:00,
2013-03-20 17:57:00,70.8,37.8,29.98,ESE,106,5.0,13.0,30,0.00,,,0.00,Wunderground v.1.15,2013-03-20 22:57:00,
2013-03-20 17:58:00,70.8,37.8,29.98,SE,141,5.0,13.0,30,0.00,,,0.00,Wunderground v.1.15,2013-03-20 22:58:00,
2013-03-20 18:02:00,70.6,36.8,29.98,SE,126,6.0,18.0,29,0.00,,,0.00,Wunderground v.1.15,2013-03-20 23:02:00,
2013-03-20 18:03:00,70.4,36.6,29.98,ESE,116,6.0,18.0,29,0.00,,,0.00,Wunderground v.1.15,2013-03-20 23:03:00,
2013-03-20 18:04:00,70.4,36.6,29.98,ESE,112,6.0,18.0,29,0.00,,,0.00,Wunderground v.1.15,2013-03-20 23:04:00,
2013-03-20 18:09:00,70.4,37.5,29.98,ESE,114,7.0,18.0,30,0.00,,,0.00,Wunderground v.1.15,2013-03-20 23:09:00,
2013-03-20 18:12:00,70.3,35.6,29.98,East,89,7.0,13.0,28,0.00,,,0.00,Wunderground v.1.15,2013-03-20 23:12:00,
2013-03-20 18:14:00,70.3,35.6,29.98,East,100,7.0,13.0,28,0.00,,,0.00,Wunderground v.1.15,2013-03-20 23:14:00,
2013-03-20 18:16:00,70.3,35.6,29.98,ESE,110,7.0,13.0,28,0.00,,,0.00,Wunderground v.1.15,2013-03-20 23:16:00,
2013-03-20 18:19:00,70.3,36.5,29.98,SE,140,7.0,13.0,29,0.00,,,0.00,Wunderground v.1.15,2013-03-20 23:19:00,
2013-03-20 18:20:00,70.3,36.5,29.98,SE,133,7.0,13.0,29,0.00,,,0.00,Wunderground v.1.15,2013-03-20 23:20:00,
2013-03-20 18:22:00,70.1,36.3,29.98,East,97,6.0,13.0,29,0.00,,,0.00,Wunderground v.1.15,2013-03-20 23:22:00,
2013-03-20 18:23:00,70.1,36.3,29.98,East,79,6.0,13.0,29,0.00,,,0.00,Wunderground v.1.15,2013-03-20 23:23:00,
2013-03-20 18:25:00,70.1,37.2,29.98,East,80,6.0,13.0,30,0.00,,,0.00,Wunderground v.1.15,2013-03-20 23:25:00,
2013-03-20 18:26:00,70.1,37.2,29.98,ESE,110,6.0,13.0,30,0.00,,,0.00,Wunderground v.1.15,2013-03-20 23:26:00,
2013-03-20 18:27:00,70.1,36.3,29.98,East,83,6.0,13.0,29,0.00,,,0.00,Wunderground v.1.15,2013-03-20 23:27:00,
2013-03-20 18:32:00,69.8,37.8,29.98,NE,52,5.0,14.0,31,0.00,,,0.00,Wunderground v.1.15,2013-03-20 23:32:00,
2013-03-20 18:33:00,69.8,36.9,29.98,East,90,5.0,14.0,30,0.00,,,0.00,Wunderground v.1.15,2013-03-20 23:33:00,
2013-03-20 18:34:00,69.8,36.9,29.98,ENE,76,4.0,14.0,30,0.00,,,0.00,Wunderground v.1.15,2013-03-20 23:34:00,
2013-03-20 18:35:00,69.6,35.9,29.98,NE,52,5.0,14.0,29,0.00,,,0.00,Wunderground v.1.15,2013-03-20 23:35:00,
2013-03-20 18:38:00,69.4,35.7,29.98,East,79,5.0,14.0,29,0.00,,,0.00,Wunderground v.1.15,2013-03-20 23:38:00,
2013-03-20 18:40:00,69.4,36.6,29.98,ESE,114,5.0,14.0,30,0.00,,,0.00,Wunderground v.1.15,2013-03-20 23:40:00,
2013-03-20 18:41:00,69.4,36.6,29.98,SE,124,5.0,13.0,30,0.00,,,0.00,Wunderground v.1.15,2013-03-20 23:41:00,
2013-03-20 18:43:00,69.3,37.3,29.98,East,93,6.0,13.0,31,0.00,,,0.00,Wunderground v.1.15,2013-03-20 23:43:00,
2013-03-20 18:46:00,69.1,37.2,29.98,East,90,6.0,13.0,31,0.00,,,0.00,Wunderground v.1.15,2013-03-20 23:46:00,
2013-03-20 18:47:00,69.1,37.2,29.98,ESE,102,6.0,13.0,31,0.00,,,0.00,Wunderground v.1.15,2013-03-20 23:47:00,
2013-03-20 18:48:00,69.1,37.2,29.98,ESE,120,5.0,13.0,31,0.00,,,0.00,Wunderground v.1.15,2013-03-20 23:48:00,
2013-03-20 18:52:00,69.1,36.3,29.98,SE,131,5.0,12.0,30,0.00,,,0.00,Wunderground v.1.15,2013-03-20 23:52:00,
2013-03-20 18:53:00,68.9,36.2,29.98,ESE,116,5.0,12.0,30,0.00,,,0.00,Wunderground v.1.15,2013-03-20 23:53:00,
2013-03-20 18:55:00,68.9,36.2,29.98,ESE,109,5.0,12.0,30,0.00,,,0.00,Wunderground v.1.15,2013-03-20 23:55:00,
2013-03-20 18:57:00,68.9,36.2,29.98,ESE,103,6.0,12.0,30,0.00,,,0.00,Wunderground v.1.15,2013-03-20 23:57:00,
2013-03-20 18:58:00,68.9,35.3,29.98,East,93,6.0,12.0,29,0.00,,,0.00,Wunderground v.1.15,2013-03-20 23:58:00,
2013-03-20 19:03:00,68.8,36.1,29.99,East,95,5.0,11.0,30,0.00,,,0.00,Wunderground v.1.15,2013-03-21 00:03:00,
2013-03-20 19:04:00,68.8,36.1,29.99,ESE,113,5.0,11.0,30,0.00,,,0.00,Wunderground v.1.15,2013-03-21 00:04:00,
2013-03-20 19:07:00,68.8,36.1,29.99,ESE,121,5.0,11.0,30,0.00,,,0.00,Wunderground v.1.15,2013-03-21 00:07:00,
2013-03-20 19:08:00,68.8,36.1,29.99,ESE,106,5.0,11.0,30,0.00,,,0.00,Wunderground v.1.15,2013-03-21 00:08:00,
2013-03-20 19:12:00,68.4,35.7,29.99,ESE,104,5.0,12.0,30,0.00,,,0.00,Wunderground v.1.15,2013-03-21 00:12:00,
2013-03-20 19:14:00,68.4,36.6,29.99,ESE,104,4.0,12.0,31,0.00,,,0.00,Wunderground v.1.15,2013-03-21 00:14:00,
2013-03-20 19:15:00,68.4,36.6,29.99,ESE,104,4.0,12.0,31,0.00,,,0.00,Wunderground v.1.15,2013-03-21 00:15:00,
2013-03-20 19:18:00,68.3,36.5,29.99,ESE,104,3.0,12.0,31,0.00,,,0.00,Wunderground v.1.15,2013-03-21 00:18:00,
2013-03-20 19:19:00,68.1,36.3,29.99,ESE,104,3.0,12.0,31,0.00,,,0.00,Wunderground v.1.15,2013-03-21 00:19:00,
2013-03-20 19:21:00,68.1,36.3,29.99,ESE,104,2.0,10.0,31,0.00,,,0.00,Wunderground v.1.15,2013-03-21 00:21:00,
2013-03-20 19:24:00,67.9,36.9,29.99,East,95,2.0,10.0,32,0.00,,,0.00,Wunderground v.1.15,2013-03-21 00:24:00,
2013-03-20 19:25:00,67.8,36.0,29.99,East,89,2.0,10.0,31,0.00,,,0.00,Wunderground v.1.15,2013-03-21 00:25:00,
2013-03-20 19:26:00,67.8,36.8,29.99,East,89,2.0,10.0,32,0.00,,,0.00,Wunderground v.1.15,2013-03-21 00:26:00,
2013-03-20 19:30:00,67.4,36.5,29.99,East,90,2.0,10.0,32,0.00,,,0.00,Wunderground v.1.15,2013-03-21 00:30:00,
2013-03-20 19:31:00,67.4,36.5,29.99,East,90,2.0,2.0,32,0.00,,,0.00,Wunderground v.1.15,2013-03-21 00:31:00,
2013-03-20 19:32:00,67.4,37.3,29.99,East,90,2.0,6.0,33,0.00,,,0.00,Wunderground v.1.15,2013-03-21 00:32:00,
2013-03-20 19:35:00,67.3,37.2,29.99,East,88,1.0,6.0,33,0.00,,,0.00,Wunderground v.1.15,2013-03-21 00:35:00,
2013-03-20 19:39:00,66.9,36.8,29.99,East,82,1.0,6.0,33,0.00,,,0.00,Wunderground v.1.15,2013-03-21 00:39:00,
2013-03-20 19:41:00,66.8,36.8,29.99,East,83,1.0,6.0,33,0.00,,,0.00,Wunderground v.1.15,2013-03-21 00:41:00,
2013-03-20 19:42:00,66.8,36.8,29.99,East,83,1.0,6.0,33,0.00,,,0.00,Wunderground v.1.15,2013-03-21 00:42:00,
2013-03-20 19:44:00,66.6,36.6,29.99,East,83,2.0,6.0,33,0.00,,,0.00,Wunderground v.1.15,2013-03-21 00:44:00,
2013-03-20 19:47:00,66.4,36.4,29.99,East,83,2.0,6.0,33,0.00,,,0.00,Wunderground v.1.15,2013-03-21 00:47:00,
2013-03-20 19:48:00,66.3,36.3,29.99,East,83,1.0,6.0,33,0.00,,,0.00,Wunderground v.1.15,2013-03-21 00:48:00,
2013-03-20 19:49:00,66.3,36.3,29.99,East,83,1.0,6.0,33,0.00,,,0.00,Wunderground v.1.15,2013-03-21 00:49:00,
2013-03-20 19:51:00,66.1,36.1,29.99,East,83,1.0,1.0,33,0.00,,,0.00,Wunderground v.1.15,2013-03-21 00:51:00,
2013-03-20 19:54:00,66.0,36.1,29.99,East,83,1.0,6.0,33,0.00,,,0.00,Wunderground v.1.15,2013-03-21 00:54:00,
2013-03-20 19:55:00,66.0,36.1,29.99,East,83,1.0,6.0,33,0.00,,,0.00,Wunderground v.1.15,2013-03-21 00:55:00,
2013-03-20 19:57:00,65.8,35.9,29.99,East,83,1.0,6.0,33,0.00,,,0.00,Wunderground v.1.15,2013-03-21 00:57:00,
2013-03-20 20:00:00,65.6,35.7,29.99,East,83,0.0,5.0,33,0.00,,,0.00,Wunderground v.1.15,2013-03-21 01:00:00,
2013-03-20 20:03:00,65.5,35.6,29.98,East,83,0.0,5.0,33,0.00,,,0.00,Wunderground v.1.15,2013-03-21 01:03:00,
2013-03-20 20:08:00,65.2,35.4,29.98,East,85,0.0,5.0,33,0.00,,,0.00,Wunderground v.1.15,2013-03-21 01:08:00,
2013-03-20 20:11:00,65.0,35.2,29.98,East,85,0.0,3.0,33,0.00,,,0.00,Wunderground v.1.15,2013-03-21 01:11:00,
2013-03-20 20:12:00,65.0,35.2,29.98,East,85,0.0,3.0,33,0.00,,,0.00,Wunderground v.1.15,2013-03-21 01:12:00,
2013-03-20 20:13:00,65.0,35.2,29.98,East,85,0.0,3.0,33,0.00,,,0.00,Wunderground v.1.15,2013-03-21 01:13:00,
2013-03-20 20:15:00,64.8,35.0,29.98,East,85,0.0,3.0,33,0.00,,,0.00,Wunderground v.1.15,2013-03-21 01:15:00,
2013-03-20 20:16:00,64.8,35.8,29.98,East,85,0.0,3.0,34,0.00,,,0.00,Wunderground v.1.15,2013-03-21 01:16:00,
2013-03-20 20:18:00,64.7,35.7,29.98,East,85,0.0,3.0,34,0.00,,,0.00,Wunderground v.1.15,2013-03-21 01:18:00,
2013-03-20 20:23:00,64.5,35.5,29.98,East,85,0.0,2.0,34,0.00,,,0.00,Wunderground v.1.15,2013-03-21 01:23:00,
2013-03-20 20:24:00,64.5,35.5,29.98,East,85,0.0,2.0,34,0.00,,,0.00,Wunderground v.1.15,2013-03-21 01:24:00,
2013-03-20 20:25:00,64.5,35.5,29.98,East,85,0.0,2.0,34,0.00,,,0.00,Wunderground v.1.15,2013-03-21 01:25:00,
2013-03-20 20:29:00,64.3,35.3,29.98,East,85,0.0,2.0,34,0.00,,,0.00,Wunderground v.1.15,2013-03-21 01:29:00,
2013-03-20 20:31:00,64.3,35.3,29.99,East,85,0.0,2.0,34,0.00,,,0.00,Wunderground v.1.15,2013-03-21 01:31:00,
2013-03-20 20:33:00,64.2,35.2,29.99,East,85,0.0,2.0,34,0.00,,,0.00,Wunderground v.1.15,2013-03-21 01:33:00,
2013-03-20 20:36:00,64.2,35.2,29.99,East,85,0.0,2.0,34,0.00,,,0.00,Wunderground v.1.15,2013-03-21 01:36:00,
2013-03-20 20:37:00,64.0,35.0,29.99,East,85,0.0,2.0,34,0.00,,,0.00,Wunderground v.1.15,2013-03-21 01:37:00,
2013-03-20 20:38:00,64.0,35.8,29.99,East,85,0.0,2.0,35,0.00,,,0.00,Wunderground v.1.15,2013-03-21 01:38:00,
2013-03-20 20:40:00,64.0,35.8,29.99,East,85,0.0,2.0,35,0.00,,,0.00,Wunderground v.1.15,2013-03-21 01:40:00,
2013-03-20 20:43:00,63.9,35.7,29.99,East,85,0.0,1.0,35,0.00,,,0.00,Wunderground v.1.15,2013-03-21 01:43:00,
2013-03-20 20:45:00,63.9,35.7,29.99,East,85,0.0,1.0,35,0.00,,,0.00,Wunderground v.1.15,2013-03-21 01:45:00,
2013-03-20 20:47:00,63.7,35.5,29.98,East,85,0.0,2.0,35,0.00,,,0.00,Wunderground v.1.15,2013-03-21 01:47:00,
2013-03-20 20:48:00,63.7,35.5,29.98,East,85,0.0,2.0,35,0.00,,,0.00,Wunderground v.1.15,2013-03-21 01:48:00,
2013-03-20 20:50:00,63.7,35.5,29.98,East,85,0.0,2.0,35,0.00,,,0.00,Wunderground v.1.15,2013-03-21 01:50:00,
2013-03-20 20:52:00,63.5,35.3,29.98,East,85,0.0,0.0,35,0.00,,,0.00,Wunderground v.1.15,2013-03-21 01:52:00,
2013-03-20 20:55:00,63.4,35.2,29.98,East,85,0.0,1.0,35,0.00,,,0.00,Wunderground v.1.15,2013-03-21 01:55:00,
2013-03-20 20:56:00,63.4,35.2,29.98,East,85,0.0,1.0,35,0.00,,,0.00,Wunderground v.1.15,2013-03-21 01:56:00,
2013-03-20 20:57:00,63.4,35.2,29.98,East,85,0.0,1.0,35,0.00,,,0.00,Wunderground v.1.15,2013-03-21 01:57:00,
2013-03-20 20:58:00,63.4,35.2,29.98,East,85,0.0,1.0,35,0.00,,,0.00,Wunderground v.1.15,2013-03-21 01:58:00,
2013-03-20 21:03:00,63.2,35.8,29.97,East,85,0.0,2.0,36,0.00,,,0.00,Wunderground v.1.15,2013-03-21 02:03:00,
2013-03-20 21:04:00,63.1,35.7,29.97,East,85,0.0,2.0,36,0.00,,,0.00,Wunderground v.1.15,2013-03-21 02:04:00,
2013-03-20 21:05:00,63.1,35.7,29.97,East,85,0.0,2.0,36,0.00,,,0.00,Wunderground v.1.15,2013-03-21 02:05:00,
2013-03-20 21:07:00,63.1,35.7,29.97,East,85,0.0,2.0,36,0.00,,,0.00,Wunderground v.1.15,2013-03-21 02:07:00,
2013-03-20 21:08:00,63.1,35.7,29.97,East,85,0.0,2.0,36,0.00,,,0.00,Wunderground v.1.15,2013-03-21 02:08:00,
2013-03-20 21:11:00,62.9,35.5,29.97,East,85,0.0,2.0,36,0.00,,,0.00,Wunderground v.1.15,2013-03-21 02:11:00,
2013-03-20 21:12:00,62.9,35.5,29.97,East,85,0.0,2.0,36,0.00,,,0.00,Wunderground v.1.15,2013-03-21 02:12:00,
2013-03-20 21:18:00,62.7,36.0,29.98,East,85,0.0,2.0,37,0.00,,,0.00,Wunderground v.1.15,2013-03-21 02:18:00,
2013-03-20 21:20:00,62.7,36.0,29.98,East,85,0.0,2.0,37,0.00,,,0.00,Wunderground v.1.15,2013-03-21 02:20:00,
2013-03-20 21:22:00,62.7,36.0,29.98,East,85,0.0,2.0,37,0.00,,,0.00,Wunderground v.1.15,2013-03-21 02:22:00,
2013-03-20 21:23:00,62.6,35.9,29.98,East,85,0.0,2.0,37,0.00,,,0.00,Wunderground v.1.15,2013-03-21 02:23:00,
2013-03-20 21:25:00,62.6,35.9,29.98,East,85,0.0,2.0,37,0.00,,,0.00,Wunderground v.1.15,2013-03-21 02:25:00,
2013-03-20 21:30:00,62.4,36.4,29.98,East,85,0.0,2.0,38,0.00,,,0.00,Wunderground v.1.15,2013-03-21 02:30:00,
2013-03-20 21:31:00,62.3,36.4,29.97,East,85,0.0,2.0,38,0.00,,,0.00,Wunderground v.1.15,2013-03-21 02:31:00,
2013-03-20 21:32:00,62.3,36.4,29.97,East,85,0.0,2.0,38,0.00,,,0.00,Wunderground v.1.15,2013-03-21 02:32:00,
2013-03-20 21:35:00,62.1,36.2,29.97,East,85,0.0,2.0,38,0.00,,,0.00,Wunderground v.1.15,2013-03-21 02:35:00,
2013-03-20 21:36:00,62.1,36.2,29.97,East,85,0.0,2.0,38,0.00,,,0.00,Wunderground v.1.15,2013-03-21 02:36:00,
2013-03-20 21:37:00,62.1,36.2,29.97,East,85,0.0,2.0,38,0.00,,,0.00,Wunderground v.1.15,2013-03-21 02:37:00,
2013-03-20 21:42:00,61.8,35.9,29.97,East,85,0.0,2.0,38,0.00,,,0.00,Wunderground v.1.15,2013-03-21 02:42:00,
2013-03-20 21:43:00,61.8,35.9,29.97,East,85,0.0,2.0,38,0.00,,,0.00,Wunderground v.1.15,2013-03-21 02:43:00,
2013-03-20 21:45:00,61.8,35.9,29.97,East,85,0.0,2.0,38,0.00,,,0.00,Wunderground v.1.15,2013-03-21 02:45:00,
2013-03-20 21:46:00,61.8,36.6,29.98,East,85,0.0,2.0,39,0.00,,,0.00,Wunderground v.1.15,2013-03-21 02:46:00,
2013-03-20 21:51:00,61.5,36.3,29.98,East,85,0.0,2.0,39,0.00,,,0.00,Wunderground v.1.15,2013-03-21 02:51:00,
2013-03-20 21:56:00,61.3,36.8,29.98,East,85,0.0,2.0,40,0.00,,,0.00,Wunderground v.1.15,2013-03-21 02:56:00,
2013-03-20 21:57:00,61.3,36.8,29.98,East,85,0.0,2.0,40,0.00,,,0.00,Wunderground v.1.15,2013-03-21 02:57:00,
2013-03-20 21:59:00,61.2,36.7,29.98,East,85,0.0,2.0,40,0.00,,,0.00,Wunderground v.1.15,2013-03-21 02:59:00,
2013-03-20 22:01:00,61.2,36.7,29.98,East,85,0.0,2.0,40,0.00,,,0.00,Wunderground v.1.15,2013-03-21 03:01:00,
2013-03-20 22:02:00,61.0,36.5,29.98,East,85,0.0,2.0,40,0.00,,,0.00,Wunderground v.1.15,2013-03-21 03:02:00,
2013-03-20 22:03:00,61.0,36.5,29.98,East,85,0.0,2.0,40,0.00,,,0.00,Wunderground v.1.15,2013-03-21 03:03:00,
2013-03-20 22:04:00,61.0,37.1,29.98,East,85,0.0,2.0,41,0.00,,,0.00,Wunderground v.1.15,2013-03-21 03:04:00,
2013-03-20 22:07:00,60.9,37.0,29.98,East,85,0.0,2.0,41,0.00,,,0.00,Wunderground v.1.15,2013-03-21 03:07:00,
2013-03-20 22:09:00,60.9,37.0,29.98,East,85,0.0,2.0,41,0.00,,,0.00,Wunderground v.1.15,2013-03-21 03:09:00,
2013-03-20 22:11:00,60.9,37.0,29.98,East,85,0.0,3.0,41,0.00,,,0.00,Wunderground v.1.15,2013-03-21 03:11:00,
2013-03-20 22:12:00,60.7,36.8,29.98,East,85,0.0,3.0,41,0.00,,,0.00,Wunderground v.1.15,2013-03-21 03:12:00,
2013-03-20 22:18:00,60.5,36.7,29.97,East,85,0.0,3.0,41,0.00,,,0.00,Wunderground v.1.15,2013-03-21 03:18:00,
2013-03-20 22:19:00,60.5,37.3,29.97,East,85,0.0,3.0,42,0.00,,,0.00,Wunderground v.1.15,2013-03-21 03:19:00,
2013-03-20 22:21:00,60.5,37.3,29.97,East,85,0.0,3.0,42,0.00,,,0.00,Wunderground v.1.15,2013-03-21 03:21:00,
2013-03-20 22:24:00,60.5,37.3,29.97,East,85,0.0,3.0,42,0.00,,,0.00,Wunderground v.1.15,2013-03-21 03:24:00,
2013-03-20 22:25:00,60.4,37.2,29.97,East,85,0.0,3.0,42,0.00,,,0.00,Wunderground v.1.15,2013-03-21 03:25:00,
2013-03-20 22:26:00,60.4,37.8,29.97,East,85,0.0,3.0,43,0.00,,,0.00,Wunderground v.1.15,2013-03-21 03:26:00,
2013-03-20 22:31:00,60.4,37.8,29.97,East,85,0.0,2.0,43,0.00,,,0.00,Wunderground v.1.15,2013-03-21 03:31:00,
2013-03-20 22:32:00,60.4,37.8,29.97,East,85,0.0,2.0,43,0.00,,,0.00,Wunderground v.1.15,2013-03-21 03:32:00,
2013-03-20 22:34:00,60.4,37.8,29.97,East,85,1.0,2.0,43,0.00,,,0.00,Wunderground v.1.15,2013-03-21 03:34:00,
2013-03-20 22:37:00,60.2,37.6,29.97,East,85,0.0,2.0,43,0.00,,,0.00,Wunderground v.1.15,2013-03-21 03:37:00,
2013-03-20 22:39:00,60.2,37.6,29.97,East,85,0.0,2.0,43,0.00,,,0.00,Wunderground v.1.15,2013-03-21 03:39:00,
2013-03-20 22:42:00,60.2,37.6,29.97,East,85,0.0,3.0,43,0.00,,,0.00,Wunderground v.1.15,2013-03-21 03:42:00,
2013-03-20 22:43:00,60.2,37.6,29.97,East,85,0.0,3.0,43,0.00,,,0.00,Wunderground v.1.15,2013-03-21 03:43:00,
2013-03-20 22:45:00,60.2,38.2,29.97,East,85,0.0,3.0,44,0.00,,,0.00,Wunderground v.1.15,2013-03-21 03:45:00,
2013-03-20 22:47:00,60.1,38.1,29.97,East,85,0.0,3.0,44,0.00,,,0.00,Wunderground v.1.15,2013-03-21 03:47:00,
2013-03-20 22:51:00,60.1,38.1,29.97,East,85,0.0,3.0,44,0.00,,,0.00,Wunderground v.1.15,2013-03-21 03:51:00,
2013-03-20 22:52:00,60.1,38.1,29.97,East,85,0.0,2.0,44,0.00,,,0.00,Wunderground v.1.15,2013-03-21 03:52:00,
2013-03-20 22:54:00,60.1,38.7,29.97,East,85,0.0,2.0,45,0.00,,,0.00,Wunderground v.1.15,2013-03-21 03:54:00,
2013-03-20 22:57:00,60.1,38.7,29.97,East,85,0.0,2.0,45,0.00,,,0.00,Wunderground v.1.15,2013-03-21 03:57:00,
2013-03-20 22:58:00,59.9,38.5,29.97,East,85,0.0,2.0,45,0.00,,,0.00,Wunderground v.1.15,2013-03-21 03:58:00,
2013-03-20 23:01:00,59.9,38.5,29.97,East,85,0.0,2.0,45,0.00,,,0.00,Wunderground v.1.15,2013-03-21 04:01:00,
2013-03-20 23:02:00,59.9,38.5,29.97,East,85,0.0,2.0,45,0.00,,,0.00,Wunderground v.1.15,2013-03-21 04:02:00,
2013-03-20 23:06:00,59.9,39.1,29.97,East,85,0.0,2.0,46,0.00,,,0.00,Wunderground v.1.15,2013-03-21 04:06:00,
2013-03-20 23:07:00,59.9,39.1,29.97,East,85,0.0,2.0,46,0.00,,,0.00,Wunderground v.1.15,2013-03-21 04:07:00,
2013-03-20 23:09:00,59.9,39.1,29.97,East,85,0.0,2.0,46,0.00,,,0.00,Wunderground v.1.15,2013-03-21 04:09:00,
2013-03-20 23:12:00,59.9,39.6,29.97,East,85,0.0,2.0,47,0.00,,,0.00,Wunderground v.1.15,2013-03-21 04:12:00,
2013-03-20 23:15:00,59.8,39.5,29.97,East,85,0.0,2.0,47,0.00,,,0.00,Wunderground v.1.15,2013-03-21 04:15:00,
2013-03-20 23:16:00,59.8,39.5,29.96,East,85,0.0,2.0,47,0.00,,,0.00,Wunderground v.1.15,2013-03-21 04:16:00,
2013-03-20 23:17:00,59.8,39.5,29.96,East,85,0.0,2.0,47,0.00,,,0.00,Wunderground v.1.15,2013-03-21 04:17:00,
2013-03-20 23:20:00,59.8,39.5,29.96,East,85,0.0,3.0,47,0.00,,,0.00,Wunderground v.1.15,2013-03-21 04:20:00,
2013-03-20 23:22:00,59.6,39.3,29.96,East,85,0.0,3.0,47,0.00,,,0.00,Wunderground v.1.15,2013-03-21 04:22:00,
2013-03-20 23:24:00,59.6,39.3,29.96,East,85,0.0,3.0,47,0.00,,,0.00,Wunderground v.1.15,2013-03-21 04:24:00,
2013-03-20 23:25:00,59.6,39.3,29.96,East,85,0.0,3.0,47,0.00,,,0.00,Wunderground v.1.15,2013-03-21 04:25:00,
2013-03-20 23:27:00,59.6,39.9,29.96,East,85,0.0,3.0,48,0.00,,,0.00,Wunderground v.1.15,2013-03-21 04:27:00,
2013-03-20 23:29:00,59.6,39.9,29.96,East,85,0.0,3.0,48,0.00,,,0.00,Wunderground v.1.15,2013-03-21 04:29:00,
2013-03-20 23:31:00,59.5,39.8,29.95,East,85,0.0,1.0,48,0.00,,,0.00,Wunderground v.1.15,2013-03-21 04:31:00,
2013-03-20 23:32:00,59.5,39.8,29.95,East,85,0.0,1.0,48,0.00,,,0.00,Wunderground v.1.15,2013-03-21 04:32:00,
2013-03-20 23:35:00,59.5,39.8,29.95,East,85,0.0,1.0,48,0.00,,,0.00,Wunderground v.1.15,2013-03-21 04:35:00,
2013-03-20 23:38:00,59.3,39.6,29.95,East,85,0.0,1.0,48,0.00,,,0.00,Wunderground v.1.15,2013-03-21 04:38:00,
2013-03-20 23:41:00,59.3,39.6,29.95,East,85,0.0,2.0,48,0.00,,,0.00,Wunderground v.1.15,2013-03-21 04:41:00,
2013-03-20 23:43:00,59.3,39.6,29.95,East,85,0.0,2.0,48,0.00,,,0.00,Wunderground v.1.15,2013-03-21 04:43:00,
2013-03-20 23:48:00,59.3,40.1,29.94,East,85,1.0,2.0,49,0.00,,,0.00,Wunderground v.1.15,2013-03-21 04:48:00,
2013-03-20 23:51:00,59.2,40.0,29.94,East,85,1.0,1.0,49,0.00,,,0.00,Wunderground v.1.15,2013-03-21 04:51:00,
2013-03-20 23:53:00,59.2,40.0,29.94,East,85,1.0,2.0,49,0.00,,,0.00,Wunderground v.1.15,2013-03-21 04:53:00,
2013-03-20 23:58:00,59.0,39.9,29.94,East,85,0.0,2.0,49,0.00,,,0.00,Wunderground v.1.15,2013-03-21 04:58:00,